RYR82T KBFI-EIDW
Flight info
| Callsign | RYR82T |
|---|---|
| Flight time | N/A |
| Altitude | 37000 |
| Route | ALPSE DCT YXC DCT NUGAR DCT UKRAL DCT OTARA DCT PERTU DCT MEETO DCT POLLE DCT YTH DCT 57N090W DCT BODRA DCT BEZED/M078F390 DCT EPMAN DCT 67N050W 67N040W 66N030W 64N020W DCT RATSU/N0454F410 DCT BARKU DCT OBUBA DCT BELZU DCT NUMPI/N0339F240 P620 NIMAT NIMAT4L |
| Aircraft | B38M/M-SDE1FGHILORVWXY/HB1 |
Departure
| Time | 2026-04-20 08:02 |
|---|---|
| Airport | King County International Airport - Boeing Field (KBFI) |
Arrival
| Time | N/A |
|---|---|
| Airport | Dublin Airport (EIDW) |
| Time | Latitude | Longitude | Altitude | Speed | Heading |
|---|---|---|---|---|---|
| 2026-04-20 07:26 | 47.53587 | -122.31022 | 30 ft | 0 kts | 240° |
| 2026-04-20 07:58 | 47.53582 | -122.31036 | 30 ft | 4 kts | 240° |
| 2026-04-20 07:58 | 47.53572 | -122.31086 | 30 ft | 5 kts | 294° |
| 2026-04-20 07:58 | 47.53602 | -122.31125 | 30 ft | 7 kts | 324° |
| 2026-04-20 07:58 | 47.53649 | -122.31171 | 30 ft | 9 kts | 325° |
| 2026-04-20 07:59 | 47.53710 | -122.31233 | 30 ft | 12 kts | 325° |
| 2026-04-20 07:59 | 47.53787 | -122.31306 | 30 ft | 14 kts | 329° |
| 2026-04-20 07:59 | 47.53881 | -122.31387 | 30 ft | 17 kts | 335° |
| 2026-04-20 07:59 | 47.53955 | -122.31320 | 30 ft | 9 kts | 60° |
| 2026-04-20 08:00 | 47.53968 | -122.31286 | 30 ft | 4 kts | 60° |
| 2026-04-20 08:00 | 47.53989 | -122.31232 | 29 ft | 8 kts | 60° |
| 2026-04-20 08:00 | 47.54020 | -122.31149 | 29 ft | 10 kts | 65° |
| 2026-04-20 08:00 | 47.53994 | -122.31082 | 29 ft | 0 kts | 148° |
| 2026-04-20 08:01 | 47.53766 | -122.30891 | 29 ft | 80 kts | 150° |
| 2026-04-20 08:01 | 47.53056 | -122.30292 | 27 ft | 151 kts | 150° |
| 2026-04-20 08:02 | 47.52014 | -122.29403 | 324 ft | 185 kts | 149° |
| 2026-04-20 08:02 | 47.50892 | -122.28395 | 1197 ft | 189 kts | 146° |
| 2026-04-20 08:02 | 47.49765 | -122.27395 | 1952 ft | 198 kts | 150° |
| 2026-04-20 08:02 | 47.48489 | -122.26424 | 2364 ft | 214 kts | 150° |
| 2026-04-20 08:03 | 47.47147 | -122.25401 | 2945 ft | 211 kts | 150° |
| 2026-04-20 08:03 | 47.45831 | -122.24538 | 2706 ft | 209 kts | 160° |
| 2026-04-20 08:03 | 47.44426 | -122.24011 | 2443 ft | 205 kts | 166° |
| 2026-04-20 08:03 | 47.43076 | -122.23474 | 2297 ft | 197 kts | 151° |
| 2026-04-20 08:04 | 47.42189 | -122.22088 | 2201 ft | 185 kts | 103° |
| 2026-04-20 08:04 | 47.42332 | -122.20325 | 2128 ft | 174 kts | 52° |
| 2026-04-20 08:04 | 47.43335 | -122.19516 | 2060 ft | 172 kts | 0° |
| 2026-04-20 08:04 | 47.44469 | -122.20133 | 1675 ft | 180 kts | 330° |
| 2026-04-20 08:05 | 47.45587 | -122.20957 | 1232 ft | 185 kts | 344° |
| 2026-04-20 08:05 | 47.46902 | -122.21235 | 656 ft | 197 kts | 356° |
| 2026-04-20 08:05 | 47.48254 | -122.21417 | 230 ft | 192 kts | 353° |
| 2026-04-20 08:05 | 47.49531 | -122.21608 | 54 ft | 174 kts | 354° |
| 2026-04-20 08:06 | 47.50708 | -122.21699 | 220 ft | 173 kts | 6° |
| 2026-04-20 08:06 | 47.51900 | -122.21384 | 615 ft | 174 kts | 9° |
| 2026-04-20 08:06 | 47.53087 | -122.21136 | 1078 ft | 169 kts | 8° |
| 2026-04-20 08:06 | 47.54235 | -122.20892 | 1711 ft | 168 kts | 8° |
| 2026-04-20 08:07 | 47.55440 | -122.20654 | 2266 ft | 186 kts | 7° |
| 2026-04-20 08:07 | 47.56797 | -122.20408 | 2707 ft | 207 kts | 7° |
| 2026-04-20 08:07 | 47.58281 | -122.20146 | 3118 ft | 225 kts | 7° |
| 2026-04-20 08:07 | 47.59907 | -122.19842 | 3844 ft | 241 kts | 7° |
| 2026-04-20 08:08 | 47.61570 | -122.19526 | 4948 ft | 243 kts | 8° |
| 2026-04-20 08:08 | 47.63303 | -122.19170 | 5688 ft | 260 kts | 9° |
| 2026-04-20 08:08 | 47.65155 | -122.18791 | 6466 ft | 274 kts | 9° |
| 2026-04-20 08:08 | 47.67050 | -122.18408 | 7454 ft | 278 kts | 8° |
| 2026-04-20 08:09 | 47.69004 | -122.18014 | 8321 ft | 288 kts | 8° |
| 2026-04-20 08:09 | 47.71001 | -122.17611 | 9277 ft | 293 kts | 7° |
| 2026-04-20 08:09 | 47.73047 | -122.17199 | 10129 ft | 301 kts | 7° |
| 2026-04-20 08:09 | 47.75173 | -122.16769 | 10724 ft | 318 kts | 7° |
| 2026-04-20 08:10 | 47.77436 | -122.16311 | 11167 ft | 338 kts | 7° |
| 2026-04-20 08:10 | 47.79842 | -122.15825 | 11622 ft | 357 kts | 7° |
| 2026-04-20 08:10 | 47.82347 | -122.15319 | 12210 ft | 370 kts | 7° |
| 2026-04-20 08:10 | 47.84916 | -122.14799 | 13071 ft | 373 kts | 7° |
| 2026-04-20 08:11 | 47.87502 | -122.14275 | 13920 ft | 378 kts | 7° |
| 2026-04-20 08:11 | 47.90122 | -122.13744 | 14646 ft | 382 kts | 7° |
| 2026-04-20 08:11 | 47.92768 | -122.13207 | 15422 ft | 386 kts | 8° |
| 2026-04-20 08:11 | 47.95446 | -122.12663 | 16166 ft | 391 kts | 8° |
| 2026-04-20 08:12 | 47.98156 | -122.12112 | 16916 ft | 395 kts | 8° |
| 2026-04-20 08:12 | 48.00895 | -122.11554 | 17639 ft | 399 kts | 8° |
| 2026-04-20 08:12 | 48.03657 | -122.10992 | 18346 ft | 403 kts | 8° |
| 2026-04-20 08:12 | 48.06456 | -122.10421 | 18964 ft | 407 kts | 8° |
| 2026-04-20 08:13 | 48.09277 | -122.09845 | 19584 ft | 411 kts | 8° |
| 2026-04-20 08:13 | 48.12099 | -122.09125 | 20197 ft | 413 kts | 17° |
| 2026-04-20 08:13 | 48.14723 | -122.07375 | 20824 ft | 414 kts | 34° |
| 2026-04-20 08:13 | 48.16865 | -122.04584 | 21373 ft | 416 kts | 51° |
| 2026-04-20 08:14 | 48.18416 | -122.00942 | 21938 ft | 417 kts | 67° |
| 2026-04-20 08:14 | 48.19571 | -121.96936 | 22484 ft | 421 kts | 69° |
| 2026-04-20 08:14 | 48.20695 | -121.92867 | 23041 ft | 425 kts | 69° |
| 2026-04-20 08:14 | 48.21807 | -121.88740 | 23601 ft | 428 kts | 70° |
| 2026-04-20 08:15 | 48.22910 | -121.84576 | 24055 ft | 432 kts | 70° |
| 2026-04-20 08:15 | 48.24017 | -121.80360 | 24513 ft | 435 kts | 70° |
| 2026-04-20 08:15 | 48.25124 | -121.76124 | 24979 ft | 438 kts | 70° |
| 2026-04-20 08:15 | 48.26240 | -121.71843 | 25398 ft | 442 kts | 70° |
| 2026-04-20 08:16 | 48.27360 | -121.67532 | 25834 ft | 446 kts | 70° |
| 2026-04-20 08:16 | 48.28491 | -121.63175 | 26266 ft | 449 kts | 70° |
| 2026-04-20 08:16 | 48.29626 | -121.58792 | 26695 ft | 452 kts | 70° |
| 2026-04-20 08:16 | 48.30771 | -121.54364 | 27098 ft | 456 kts | 70° |
| 2026-04-20 08:17 | 48.31919 | -121.49916 | 27490 ft | 460 kts | 70° |
| 2026-04-20 08:17 | 48.33076 | -121.45424 | 27920 ft | 462 kts | 70° |
| 2026-04-20 08:17 | 48.34239 | -121.40898 | 28323 ft | 466 kts | 70° |
| 2026-04-20 08:17 | 48.35410 | -121.36331 | 28725 ft | 469 kts | 70° |
| 2026-04-20 08:18 | 48.36585 | -121.31741 | 29126 ft | 472 kts | 70° |
| 2026-04-20 08:18 | 48.37765 | -121.27121 | 29488 ft | 475 kts | 70° |
| 2026-04-20 08:18 | 48.38953 | -121.22462 | 29883 ft | 478 kts | 70° |
| 2026-04-20 08:18 | 48.40147 | -121.17772 | 30212 ft | 481 kts | 70° |
| 2026-04-20 08:19 | 48.41343 | -121.13059 | 30556 ft | 484 kts | 70° |
| 2026-04-20 08:19 | 48.42547 | -121.08321 | 30932 ft | 484 kts | 70° |
| 2026-04-20 08:19 | 48.43739 | -121.03594 | 31389 ft | 483 kts | 70° |
| 2026-04-20 08:19 | 48.44930 | -120.98873 | 31841 ft | 482 kts | 70° |
| 2026-04-20 08:20 | 48.46117 | -120.94157 | 32301 ft | 481 kts | 70° |
| 2026-04-20 08:20 | 48.47299 | -120.89452 | 32765 ft | 480 kts | 71° |
| 2026-04-20 08:20 | 48.48480 | -120.84744 | 33229 ft | 479 kts | 71° |
| 2026-04-20 08:20 | 48.49257 | -120.81638 | 33524 ft | 478 kts | 71° |
| 2026-04-20 08:21 | 48.50824 | -120.75366 | 34056 ft | 478 kts | 70° |
| 2026-04-20 08:21 | 48.51600 | -120.72255 | 34297 ft | 478 kts | 70° |
| 2026-04-20 08:21 | 48.52767 | -120.67565 | 34677 ft | 477 kts | 71° |
| 2026-04-20 08:21 | 48.53927 | -120.62890 | 35074 ft | 476 kts | 71° |
| 2026-04-20 08:22 | 48.55084 | -120.58225 | 35446 ft | 474 kts | 71° |
| 2026-04-20 08:22 | 48.56237 | -120.53560 | 35792 ft | 473 kts | 71° |
| 2026-04-20 08:22 | 48.57385 | -120.48906 | 36126 ft | 473 kts | 71° |
| 2026-04-20 08:22 | 48.58528 | -120.44266 | 36458 ft | 472 kts | 71° |
| 2026-04-20 08:23 | 48.59669 | -120.39626 | 36771 ft | 471 kts | 70° |
| 2026-04-20 08:23 | 48.60811 | -120.34965 | 36952 ft | 473 kts | 70° |
| 2026-04-20 08:23 | 48.63082 | -120.25673 | 36935 ft | 470 kts | 71° |
| 2026-04-20 08:24 | 48.65341 | -120.16395 | 36931 ft | 470 kts | 71° |
| 2026-04-20 08:24 | 48.67592 | -120.07110 | 36944 ft | 470 kts | 71° |
| 2026-04-20 08:25 | 48.69839 | -119.97799 | 36943 ft | 472 kts | 71° |
| 2026-04-20 08:25 | 48.72085 | -119.88456 | 36932 ft | 472 kts | 71° |
| 2026-04-20 08:26 | 48.74322 | -119.79109 | 36920 ft | 472 kts | 71° |
| 2026-04-20 08:26 | 48.76553 | -119.69749 | 36930 ft | 472 kts | 71° |
| 2026-04-20 08:27 | 48.78776 | -119.60381 | 36941 ft | 473 kts | 71° |
| 2026-04-20 08:27 | 48.80999 | -119.50971 | 36943 ft | 474 kts | 71° |
| 2026-04-20 08:28 | 48.83213 | -119.41558 | 36926 ft | 474 kts | 71° |
| 2026-04-20 08:28 | 48.85422 | -119.32126 | 36945 ft | 474 kts | 71° |
| 2026-04-20 08:29 | 48.87620 | -119.22702 | 36964 ft | 474 kts | 71° |
| 2026-04-20 08:29 | 48.89810 | -119.13271 | 36947 ft | 476 kts | 71° |
| 2026-04-20 08:30 | 48.92004 | -119.03778 | 36970 ft | 476 kts | 71° |
| 2026-04-20 08:30 | 48.94191 | -118.94275 | 36963 ft | 476 kts | 71° |
| 2026-04-20 08:31 | 48.96369 | -118.84769 | 36983 ft | 476 kts | 71° |
| 2026-04-20 08:31 | 48.98546 | -118.75228 | 36992 ft | 478 kts | 71° |
| 2026-04-20 08:32 | 49.00718 | -118.65663 | 36980 ft | 477 kts | 71° |
| 2026-04-20 08:32 | 49.02877 | -118.56108 | 36987 ft | 478 kts | 71° |
| 2026-04-20 08:33 | 49.06108 | -118.41740 | 36996 ft | 478 kts | 71° |
| 2026-04-20 08:34 | 49.08258 | -118.32117 | 36996 ft | 480 kts | 71° |
| 2026-04-20 08:34 | 49.10402 | -118.22480 | 36998 ft | 480 kts | 71° |
| 2026-04-20 08:35 | 49.12538 | -118.12835 | 36989 ft | 479 kts | 71° |
| 2026-04-20 08:35 | 49.14664 | -118.03190 | 37012 ft | 480 kts | 71° |
| 2026-04-20 08:36 | 49.16776 | -117.93564 | 37019 ft | 481 kts | 71° |
| 2026-04-20 08:36 | 49.18892 | -117.83873 | 37006 ft | 481 kts | 71° |
| 2026-04-20 08:37 | 49.21003 | -117.74160 | 37012 ft | 481 kts | 71° |
| 2026-04-20 08:37 | 49.23103 | -117.64454 | 37025 ft | 481 kts | 71° |
| 2026-04-20 08:38 | 49.25200 | -117.54714 | 37020 ft | 482 kts | 71° |
| 2026-04-20 08:38 | 49.27291 | -117.44958 | 37015 ft | 482 kts | 71° |
| 2026-04-20 08:39 | 49.29374 | -117.35191 | 37024 ft | 482 kts | 71° |
| 2026-04-20 08:39 | 49.31450 | -117.25410 | 37011 ft | 482 kts | 71° |
| 2026-04-20 08:40 | 49.33519 | -117.15613 | 37125 ft | 483 kts | 71° |
| 2026-04-20 08:40 | 49.34550 | -117.10716 | 37455 ft | 482 kts | 71° |
| 2026-04-20 08:40 | 49.35578 | -117.05819 | 37746 ft | 482 kts | 71° |
| 2026-04-20 08:40 | 49.36599 | -117.00941 | 38049 ft | 481 kts | 71° |
| 2026-04-20 08:41 | 49.37622 | -116.96046 | 38337 ft | 481 kts | 71° |
| 2026-04-20 08:41 | 49.38639 | -116.91167 | 38597 ft | 480 kts | 71° |
| 2026-04-20 08:41 | 49.39655 | -116.86279 | 38822 ft | 479 kts | 71° |
| 2026-04-20 08:41 | 49.40664 | -116.81416 | 38987 ft | 479 kts | 71° |
| 2026-04-20 08:42 | 49.41675 | -116.76527 | 39022 ft | 481 kts | 71° |
| 2026-04-20 08:42 | 49.43690 | -116.66755 | 38992 ft | 479 kts | 71° |
| 2026-04-20 08:43 | 49.45699 | -116.56979 | 39002 ft | 480 kts | 71° |
| 2026-04-20 08:43 | 49.47688 | -116.47259 | 38998 ft | 479 kts | 71° |
| 2026-04-20 08:44 | 49.49680 | -116.37470 | 39000 ft | 480 kts | 71° |
| 2026-04-20 08:44 | 49.51684 | -116.27577 | 39011 ft | 482 kts | 71° |
| 2026-04-20 08:45 | 49.53671 | -116.17723 | 39015 ft | 482 kts | 71° |
| 2026-04-20 08:45 | 49.56024 | -116.08115 | 38986 ft | 477 kts | 56° |
| 2026-04-20 08:46 | 49.59900 | -115.99854 | 39005 ft | 477 kts | 51° |
| 2026-04-20 08:46 | 49.63893 | -115.91685 | 39010 ft | 477 kts | 50° |
| 2026-04-20 08:47 | 49.67883 | -115.83585 | 39011 ft | 477 kts | 50° |
| 2026-04-20 08:47 | 49.71893 | -115.75430 | 39009 ft | 477 kts | 50° |
| 2026-04-20 08:48 | 49.75901 | -115.67254 | 39022 ft | 477 kts | 50° |
| 2026-04-20 08:48 | 49.79915 | -115.59040 | 39011 ft | 479 kts | 50° |
| 2026-04-20 08:49 | 49.83924 | -115.50811 | 39001 ft | 479 kts | 50° |
| 2026-04-20 08:49 | 49.87932 | -115.42560 | 39011 ft | 479 kts | 50° |
| 2026-04-20 08:50 | 49.91928 | -115.34305 | 39008 ft | 479 kts | 50° |
| 2026-04-20 08:50 | 49.95923 | -115.26028 | 39012 ft | 479 kts | 50° |
| 2026-04-20 08:51 | 49.99913 | -115.17734 | 38996 ft | 479 kts | 50° |
| 2026-04-20 08:51 | 50.03898 | -115.09426 | 39007 ft | 479 kts | 50° |
| 2026-04-20 08:52 | 50.07876 | -115.01105 | 38989 ft | 479 kts | 50° |
| 2026-04-20 08:52 | 50.11838 | -114.92795 | 38996 ft | 476 kts | 50° |
| 2026-04-20 08:53 | 50.15777 | -114.84511 | 38984 ft | 475 kts | 50° |
| 2026-04-20 08:53 | 50.19915 | -114.76588 | 38987 ft | 474 kts | 47° |
| 2026-04-20 08:54 | 50.24115 | -114.68643 | 38973 ft | 474 kts | 47° |
| 2026-04-20 08:54 | 50.28302 | -114.60670 | 38967 ft | 474 kts | 47° |
| 2026-04-20 08:55 | 50.32468 | -114.52708 | 38968 ft | 473 kts | 47° |
| 2026-04-20 08:55 | 50.36629 | -114.44732 | 38951 ft | 473 kts | 47° |
| 2026-04-20 08:56 | 50.40814 | -114.36793 | 38956 ft | 471 kts | 41° |
| 2026-04-20 08:56 | 50.45589 | -114.29936 | 38954 ft | 464 kts | 38° |
| 2026-04-20 08:57 | 50.50346 | -114.23148 | 38958 ft | 462 kts | 38° |
| 2026-04-20 08:57 | 50.55104 | -114.16351 | 38950 ft | 462 kts | 38° |
| 2026-04-20 08:58 | 50.59860 | -114.09539 | 38938 ft | 462 kts | 38° |
| 2026-04-20 08:58 | 50.64299 | -114.02199 | 38954 ft | 465 kts | 46° |
| 2026-04-20 08:59 | 50.68460 | -113.94327 | 38917 ft | 469 kts | 46° |
| 2026-04-20 08:59 | 50.72631 | -113.86372 | 38924 ft | 471 kts | 46° |
| 2026-04-20 09:00 | 50.76806 | -113.78382 | 38920 ft | 471 kts | 46° |
| 2026-04-20 09:00 | 50.80970 | -113.70386 | 38934 ft | 472 kts | 47° |
| 2026-04-20 09:01 | 50.85158 | -113.62321 | 38926 ft | 475 kts | 47° |
| 2026-04-20 09:01 | 50.89346 | -113.54232 | 38911 ft | 475 kts | 47° |
| 2026-04-20 09:02 | 50.93522 | -113.46140 | 38912 ft | 475 kts | 47° |
| 2026-04-20 09:02 | 50.97699 | -113.38020 | 38909 ft | 475 kts | 47° |
| 2026-04-20 09:03 | 51.01849 | -113.29929 | 38912 ft | 475 kts | 47° |
| 2026-04-20 09:03 | 51.05997 | -113.21743 | 38903 ft | 477 kts | 49° |
| 2026-04-20 09:04 | 51.10019 | -113.13350 | 38899 ft | 477 kts | 49° |
| 2026-04-20 09:04 | 51.14050 | -113.04964 | 38898 ft | 477 kts | 49° |
| 2026-04-20 09:05 | 51.18082 | -112.96556 | 38888 ft | 477 kts | 49° |
| 2026-04-20 09:05 | 51.22104 | -112.88139 | 38890 ft | 476 kts | 49° |
| 2026-04-20 09:06 | 51.26108 | -112.79734 | 38882 ft | 476 kts | 49° |
| 2026-04-20 09:06 | 51.30109 | -112.71307 | 38878 ft | 476 kts | 49° |
| 2026-04-20 09:07 | 51.34100 | -112.62874 | 38879 ft | 476 kts | 49° |
| 2026-04-20 09:07 | 51.38084 | -112.54429 | 38889 ft | 475 kts | 49° |
| 2026-04-20 09:08 | 51.42036 | -112.46024 | 38880 ft | 471 kts | 49° |
| 2026-04-20 09:08 | 51.45971 | -112.37627 | 38881 ft | 471 kts | 49° |
| 2026-04-20 09:09 | 51.49897 | -112.29223 | 38882 ft | 471 kts | 49° |
| 2026-04-20 09:09 | 51.53162 | -112.22214 | 38884 ft | 471 kts | 49° |
| 2026-04-20 09:10 | 51.57074 | -112.13788 | 38893 ft | 470 kts | 49° |
| 2026-04-20 09:10 | 51.61607 | -112.03992 | 38887 ft | 469 kts | 49° |
| 2026-04-20 09:11 | 51.64870 | -111.96918 | 38889 ft | 470 kts | 49° |
| 2026-04-20 09:11 | 51.68731 | -111.88520 | 38901 ft | 469 kts | 49° |
| 2026-04-20 09:12 | 51.72602 | -111.80076 | 38910 ft | 468 kts | 49° |
| 2026-04-20 09:12 | 51.76475 | -111.71598 | 38900 ft | 470 kts | 49° |
| 2026-04-20 09:13 | 51.80348 | -111.63093 | 38900 ft | 470 kts | 49° |
| 2026-04-20 09:13 | 51.84210 | -111.54582 | 38901 ft | 470 kts | 50° |
| 2026-04-20 09:14 | 51.88071 | -111.46046 | 38897 ft | 470 kts | 50° |
| 2026-04-20 09:14 | 51.91928 | -111.37493 | 38900 ft | 470 kts | 49° |
| 2026-04-20 09:15 | 51.95777 | -111.28926 | 38890 ft | 471 kts | 49° |
| 2026-04-20 09:15 | 51.99624 | -111.20336 | 38889 ft | 471 kts | 49° |
| 2026-04-20 09:16 | 52.03464 | -111.11732 | 38888 ft | 471 kts | 49° |
| 2026-04-20 09:16 | 52.07300 | -111.03109 | 38903 ft | 471 kts | 49° |
| 2026-04-20 09:17 | 52.11134 | -110.94462 | 38884 ft | 471 kts | 49° |
| 2026-04-20 09:17 | 52.14958 | -110.85808 | 38871 ft | 470 kts | 49° |
| 2026-04-20 09:18 | 52.18770 | -110.77151 | 38881 ft | 470 kts | 49° |
| 2026-04-20 09:18 | 52.22580 | -110.68471 | 38868 ft | 470 kts | 49° |
| 2026-04-20 09:19 | 52.26383 | -110.59777 | 38880 ft | 472 kts | 49° |
| 2026-04-20 09:19 | 52.30188 | -110.51047 | 38871 ft | 472 kts | 49° |
| 2026-04-20 09:20 | 52.33992 | -110.42290 | 38862 ft | 472 kts | 49° |
| 2026-04-20 09:20 | 52.37765 | -110.33576 | 38860 ft | 472 kts | 49° |
| 2026-04-20 09:21 | 52.41578 | -110.24740 | 38889 ft | 472 kts | 49° |
| 2026-04-20 09:21 | 52.45345 | -110.15978 | 38868 ft | 474 kts | 49° |
| 2026-04-20 09:22 | 52.49136 | -110.07132 | 38863 ft | 474 kts | 49° |
| 2026-04-20 09:22 | 52.52921 | -109.98268 | 38860 ft | 474 kts | 49° |
| 2026-04-20 09:23 | 52.56702 | -109.89384 | 38870 ft | 474 kts | 49° |
| 2026-04-20 09:23 | 52.60471 | -109.80494 | 38854 ft | 474 kts | 49° |
| 2026-04-20 09:24 | 52.64232 | -109.71595 | 38856 ft | 474 kts | 49° |
| 2026-04-20 09:24 | 52.67992 | -109.62666 | 38857 ft | 474 kts | 49° |
| 2026-04-20 09:25 | 52.71743 | -109.53728 | 38846 ft | 474 kts | 49° |
| 2026-04-20 09:25 | 52.75490 | -109.44767 | 38873 ft | 474 kts | 49° |
| 2026-04-20 09:26 | 52.79226 | -109.35800 | 38850 ft | 474 kts | 49° |
| 2026-04-20 09:26 | 52.82959 | -109.26810 | 38849 ft | 474 kts | 49° |
| 2026-04-20 09:27 | 52.86690 | -109.17793 | 38848 ft | 474 kts | 49° |
| 2026-04-20 09:27 | 52.90408 | -109.08776 | 38847 ft | 474 kts | 49° |
| 2026-04-20 09:28 | 52.94123 | -108.99733 | 38858 ft | 474 kts | 49° |
| 2026-04-20 09:28 | 52.97827 | -108.90685 | 38847 ft | 474 kts | 49° |
| 2026-04-20 09:29 | 53.01517 | -108.81637 | 38842 ft | 473 kts | 49° |
| 2026-04-20 09:29 | 53.05203 | -108.72570 | 38841 ft | 473 kts | 49° |
| 2026-04-20 09:30 | 53.08854 | -108.63555 | 38845 ft | 473 kts | 49° |
| 2026-04-20 09:30 | 53.12532 | -108.54440 | 38847 ft | 475 kts | 49° |
| 2026-04-20 09:31 | 53.16216 | -108.45277 | 38834 ft | 475 kts | 49° |
| 2026-04-20 09:31 | 53.19889 | -108.36112 | 38832 ft | 475 kts | 49° |
| 2026-04-20 09:32 | 53.23557 | -108.26923 | 38823 ft | 475 kts | 49° |
| 2026-04-20 09:32 | 53.27218 | -108.17719 | 38846 ft | 477 kts | 49° |
| 2026-04-20 09:33 | 53.30883 | -108.08468 | 38817 ft | 478 kts | 49° |
| 2026-04-20 09:33 | 53.34545 | -107.99193 | 38816 ft | 478 kts | 49° |
| 2026-04-20 09:34 | 53.38200 | -107.89908 | 38804 ft | 478 kts | 49° |
| 2026-04-20 09:34 | 53.43679 | -107.75936 | 38828 ft | 479 kts | 49° |
| 2026-04-20 09:35 | 53.47333 | -107.66569 | 38792 ft | 480 kts | 49° |
| 2026-04-20 09:35 | 53.50988 | -107.57171 | 38794 ft | 480 kts | 49° |
| 2026-04-20 09:36 | 53.54609 | -107.47826 | 38779 ft | 480 kts | 49° |
| 2026-04-20 09:36 | 53.58249 | -107.38399 | 38777 ft | 481 kts | 49° |
| 2026-04-20 09:37 | 53.61716 | -107.28718 | 38785 ft | 484 kts | 51° |
| 2026-04-20 09:37 | 53.65185 | -107.19007 | 38776 ft | 483 kts | 51° |
| 2026-04-20 09:38 | 53.68654 | -107.09291 | 38779 ft | 484 kts | 51° |
| 2026-04-20 09:38 | 53.72115 | -106.99560 | 38772 ft | 484 kts | 51° |
| 2026-04-20 09:39 | 53.75574 | -106.89801 | 38807 ft | 484 kts | 51° |
| 2026-04-20 09:39 | 53.79022 | -106.80028 | 38775 ft | 485 kts | 51° |
| 2026-04-20 09:40 | 53.82470 | -106.70222 | 38767 ft | 485 kts | 51° |
| 2026-04-20 09:40 | 53.85908 | -106.60405 | 38789 ft | 485 kts | 51° |
| 2026-04-20 09:41 | 53.89341 | -106.50558 | 38764 ft | 485 kts | 51° |
| 2026-04-20 09:41 | 53.92766 | -106.40698 | 38775 ft | 486 kts | 51° |
| 2026-04-20 09:42 | 53.96184 | -106.30818 | 38753 ft | 486 kts | 51° |
| 2026-04-20 09:42 | 53.99602 | -106.20900 | 38749 ft | 486 kts | 52° |
| 2026-04-20 09:43 | 54.03008 | -106.10976 | 38746 ft | 486 kts | 52° |
| 2026-04-20 09:43 | 54.06410 | -106.01023 | 38750 ft | 486 kts | 52° |
| 2026-04-20 09:44 | 54.09802 | -105.91058 | 38738 ft | 487 kts | 52° |
| 2026-04-20 09:44 | 54.13193 | -105.81057 | 38737 ft | 487 kts | 52° |
| 2026-04-20 09:45 | 54.16573 | -105.71046 | 38735 ft | 487 kts | 52° |
| 2026-04-20 09:45 | 54.19942 | -105.61027 | 38731 ft | 487 kts | 52° |
| 2026-04-20 09:46 | 54.23309 | -105.50975 | 38730 ft | 487 kts | 52° |
| 2026-04-20 09:46 | 54.26664 | -105.40914 | 38721 ft | 487 kts | 52° |
| 2026-04-20 09:47 | 54.30017 | -105.30821 | 38726 ft | 489 kts | 52° |
| 2026-04-20 09:47 | 54.33378 | -105.20661 | 38713 ft | 491 kts | 52° |
| 2026-04-20 09:48 | 54.36735 | -105.10469 | 38708 ft | 490 kts | 52° |
| 2026-04-20 09:48 | 54.40082 | -105.00265 | 38707 ft | 491 kts | 53° |
| 2026-04-20 09:49 | 54.43423 | -104.90035 | 38693 ft | 491 kts | 53° |
| 2026-04-20 09:49 | 54.46759 | -104.79779 | 38693 ft | 492 kts | 53° |
| 2026-04-20 09:50 | 54.50086 | -104.69507 | 38683 ft | 492 kts | 53° |
| 2026-04-20 09:50 | 54.53407 | -104.59211 | 38696 ft | 492 kts | 53° |
| 2026-04-20 09:51 | 54.56719 | -104.48897 | 38671 ft | 492 kts | 53° |
| 2026-04-20 09:51 | 54.60029 | -104.38543 | 38672 ft | 493 kts | 53° |
| 2026-04-20 09:52 | 54.63304 | -104.28259 | 38666 ft | 493 kts | 53° |
| 2026-04-20 09:52 | 54.66598 | -104.17870 | 38665 ft | 493 kts | 54° |
| 2026-04-20 09:53 | 54.69887 | -104.07465 | 38654 ft | 495 kts | 53° |
| 2026-04-20 09:53 | 54.73186 | -103.96983 | 38652 ft | 496 kts | 54° |
| 2026-04-20 09:54 | 54.76477 | -103.86483 | 38637 ft | 496 kts | 54° |
| 2026-04-20 09:54 | 54.77936 | -103.81016 | 38620 ft | 505 kts | 65° |
| 2026-04-20 09:54 | 54.79063 | -103.75248 | 38642 ft | 506 kts | 64° |
| 2026-04-20 09:55 | 54.81388 | -103.63726 | 38667 ft | 507 kts | 64° |
| 2026-04-20 09:55 | 54.83697 | -103.52161 | 38619 ft | 507 kts | 64° |
| 2026-04-20 09:56 | 54.85997 | -103.40565 | 38624 ft | 508 kts | 64° |
| 2026-04-20 09:56 | 54.87900 | -103.30919 | 38623 ft | 508 kts | 64° |
| 2026-04-20 09:57 | 54.90181 | -103.19297 | 38624 ft | 508 kts | 64° |
| 2026-04-20 09:57 | 54.92449 | -103.07665 | 38630 ft | 508 kts | 64° |
| 2026-04-20 09:58 | 54.94705 | -102.96029 | 38620 ft | 508 kts | 65° |
| 2026-04-20 09:58 | 54.96950 | -102.84383 | 38620 ft | 508 kts | 65° |
| 2026-04-20 09:59 | 54.99185 | -102.72714 | 38623 ft | 508 kts | 65° |
| 2026-04-20 09:59 | 55.01408 | -102.61032 | 38647 ft | 508 kts | 65° |
| 2026-04-20 10:00 | 55.03616 | -102.49366 | 38623 ft | 507 kts | 65° |
| 2026-04-20 10:00 | 55.05815 | -102.37674 | 38617 ft | 507 kts | 65° |
| 2026-04-20 10:01 | 55.07999 | -102.25982 | 38617 ft | 507 kts | 65° |
| 2026-04-20 10:01 | 55.10175 | -102.14267 | 38616 ft | 507 kts | 65° |
| 2026-04-20 10:02 | 55.12338 | -102.02546 | 38612 ft | 507 kts | 66° |
| 2026-04-20 10:02 | 55.14488 | -101.90824 | 38609 ft | 507 kts | 66° |
| 2026-04-20 10:03 | 55.16628 | -101.79079 | 38613 ft | 507 kts | 66° |
| 2026-04-20 10:03 | 55.18744 | -101.67393 | 38604 ft | 507 kts | 66° |
| 2026-04-20 10:04 | 55.20876 | -101.55544 | 38619 ft | 507 kts | 66° |
| 2026-04-20 10:04 | 55.22967 | -101.43848 | 38610 ft | 507 kts | 66° |
| 2026-04-20 10:05 | 55.25075 | -101.31982 | 38603 ft | 507 kts | 66° |
| 2026-04-20 10:05 | 55.27145 | -101.20251 | 38628 ft | 507 kts | 67° |
| 2026-04-20 10:06 | 55.29219 | -101.08425 | 38600 ft | 507 kts | 67° |
| 2026-04-20 10:06 | 55.31280 | -100.96591 | 38583 ft | 507 kts | 67° |
| 2026-04-20 10:07 | 55.33330 | -100.84742 | 38579 ft | 507 kts | 67° |
| 2026-04-20 10:07 | 55.35370 | -100.72876 | 38580 ft | 508 kts | 67° |
| 2026-04-20 10:08 | 55.37399 | -100.60990 | 38581 ft | 508 kts | 67° |
| 2026-04-20 10:08 | 55.39417 | -100.49094 | 38581 ft | 508 kts | 68° |
| 2026-04-20 10:09 | 55.41423 | -100.37185 | 38585 ft | 508 kts | 68° |
| 2026-04-20 10:09 | 55.43418 | -100.25263 | 38595 ft | 508 kts | 68° |
| 2026-04-20 10:10 | 55.45402 | -100.13319 | 38590 ft | 508 kts | 68° |
| 2026-04-20 10:10 | 55.47376 | -100.01362 | 38609 ft | 508 kts | 68° |
| 2026-04-20 10:11 | 55.49334 | -99.89410 | 38582 ft | 507 kts | 68° |
| 2026-04-20 10:11 | 55.51282 | -99.77443 | 38584 ft | 508 kts | 68° |
| 2026-04-20 10:12 | 55.53205 | -99.65547 | 38590 ft | 508 kts | 68° |
| 2026-04-20 10:12 | 55.55130 | -99.53552 | 38585 ft | 508 kts | 68° |
| 2026-04-20 10:13 | 55.57041 | -99.41560 | 38588 ft | 506 kts | 69° |
| 2026-04-20 10:13 | 55.58937 | -99.29577 | 38591 ft | 506 kts | 69° |
| 2026-04-20 10:14 | 55.60822 | -99.17578 | 38595 ft | 506 kts | 69° |
| 2026-04-20 10:14 | 55.62695 | -99.05570 | 38597 ft | 506 kts | 69° |
| 2026-04-20 10:15 | 55.64555 | -98.93556 | 38619 ft | 506 kts | 69° |
| 2026-04-20 10:15 | 55.66398 | -98.81569 | 38601 ft | 504 kts | 69° |
| 2026-04-20 10:16 | 55.68230 | -98.69568 | 38613 ft | 504 kts | 69° |
| 2026-04-20 10:16 | 55.70048 | -98.57563 | 38600 ft | 505 kts | 69° |
| 2026-04-20 10:17 | 55.70957 | -98.51534 | 38752 ft | 505 kts | 70° |
| 2026-04-20 10:17 | 55.71858 | -98.45528 | 38970 ft | 505 kts | 70° |
| 2026-04-20 10:17 | 55.72760 | -98.39504 | 39205 ft | 504 kts | 70° |
| 2026-04-20 10:17 | 55.73657 | -98.33497 | 39429 ft | 503 kts | 70° |
| 2026-04-20 10:18 | 55.74549 | -98.27506 | 39644 ft | 503 kts | 70° |
| 2026-04-20 10:18 | 55.75440 | -98.21497 | 39837 ft | 502 kts | 70° |
| 2026-04-20 10:18 | 55.76326 | -98.15504 | 40025 ft | 502 kts | 70° |
| 2026-04-20 10:18 | 55.77208 | -98.09515 | 40200 ft | 501 kts | 70° |
| 2026-04-20 10:19 | 55.78087 | -98.03526 | 40369 ft | 501 kts | 70° |
| 2026-04-20 10:19 | 55.78961 | -97.97550 | 40525 ft | 499 kts | 70° |
| 2026-04-20 10:19 | 55.80700 | -97.85597 | 40579 ft | 499 kts | 70° |
| 2026-04-20 10:20 | 55.82862 | -97.73987 | 40585 ft | 494 kts | 66° |
| 2026-04-20 10:20 | 55.85038 | -97.62450 | 40576 ft | 495 kts | 66° |
| 2026-04-20 10:21 | 55.87205 | -97.50817 | 40596 ft | 495 kts | 66° |
| 2026-04-20 10:21 | 55.89359 | -97.39177 | 40650 ft | 495 kts | 66° |
| 2026-04-20 10:22 | 55.91504 | -97.27515 | 40651 ft | 496 kts | 67° |
| 2026-04-20 10:22 | 55.93642 | -97.15821 | 40661 ft | 496 kts | 67° |
| 2026-04-20 10:23 | 55.95766 | -97.04126 | 40655 ft | 496 kts | 67° |
| 2026-04-20 10:23 | 55.97882 | -96.92403 | 40666 ft | 496 kts | 67° |
| 2026-04-20 10:24 | 55.99985 | -96.80676 | 40702 ft | 496 kts | 67° |
| 2026-04-20 10:24 | 56.02080 | -96.68923 | 40677 ft | 496 kts | 67° |
| 2026-04-20 10:25 | 56.04161 | -96.57166 | 40688 ft | 496 kts | 67° |
| 2026-04-20 10:25 | 56.06231 | -96.45399 | 40687 ft | 496 kts | 68° |
| 2026-04-20 10:26 | 56.08291 | -96.33614 | 40700 ft | 496 kts | 68° |
| 2026-04-20 10:26 | 56.10341 | -96.21810 | 40716 ft | 496 kts | 68° |
| 2026-04-20 10:27 | 56.12376 | -96.10012 | 40711 ft | 496 kts | 68° |
| 2026-04-20 10:27 | 56.14401 | -95.98194 | 40714 ft | 496 kts | 68° |
| 2026-04-20 10:28 | 56.16417 | -95.86350 | 40735 ft | 496 kts | 68° |
| 2026-04-20 10:28 | 56.18408 | -95.74577 | 40718 ft | 496 kts | 68° |
| 2026-04-20 10:29 | 56.20398 | -95.62734 | 40731 ft | 495 kts | 68° |
| 2026-04-20 10:29 | 56.22374 | -95.50891 | 40727 ft | 495 kts | 68° |
| 2026-04-20 10:30 | 56.24341 | -95.39020 | 40727 ft | 495 kts | 68° |
| 2026-04-20 10:30 | 56.26296 | -95.27143 | 40722 ft | 495 kts | 69° |
| 2026-04-20 10:31 | 56.28240 | -95.15249 | 40716 ft | 495 kts | 69° |
| 2026-04-20 10:31 | 56.30173 | -95.03342 | 40707 ft | 496 kts | 69° |
| 2026-04-20 10:32 | 56.32095 | -94.91419 | 40689 ft | 496 kts | 69° |
| 2026-04-20 10:32 | 56.34006 | -94.79486 | 40682 ft | 496 kts | 69° |
| 2026-04-20 10:33 | 56.35904 | -94.67546 | 40753 ft | 496 kts | 69° |
| 2026-04-20 10:33 | 56.37794 | -94.55576 | 40786 ft | 496 kts | 69° |
| 2026-04-20 10:34 | 56.39665 | -94.43637 | 40761 ft | 494 kts | 69° |
| 2026-04-20 10:35 | 56.42451 | -94.25703 | 40773 ft | 495 kts | 69° |
| 2026-04-20 10:35 | 56.44294 | -94.13733 | 40789 ft | 495 kts | 70° |
| 2026-04-20 10:36 | 56.46129 | -94.01732 | 40796 ft | 495 kts | 70° |
| 2026-04-20 10:36 | 56.47946 | -93.89757 | 40792 ft | 493 kts | 70° |
| 2026-04-20 10:37 | 56.49748 | -93.77790 | 40798 ft | 493 kts | 70° |
| 2026-04-20 10:37 | 56.51541 | -93.65802 | 40803 ft | 493 kts | 70° |
| 2026-04-20 10:38 | 56.53322 | -93.53801 | 40816 ft | 493 kts | 70° |
| 2026-04-20 10:38 | 56.55090 | -93.41800 | 40840 ft | 492 kts | 70° |
| 2026-04-20 10:39 | 56.56831 | -93.29895 | 40818 ft | 491 kts | 70° |
| 2026-04-20 10:39 | 56.58571 | -93.17905 | 40831 ft | 492 kts | 71° |
| 2026-04-20 10:40 | 56.60311 | -93.05823 | 40823 ft | 492 kts | 71° |
| 2026-04-20 10:40 | 56.62030 | -92.93796 | 40834 ft | 492 kts | 71° |
| 2026-04-20 10:41 | 56.63724 | -92.81851 | 40845 ft | 491 kts | 71° |
| 2026-04-20 10:41 | 56.65414 | -92.69851 | 40842 ft | 490 kts | 71° |
| 2026-04-20 10:42 | 56.67094 | -92.57822 | 40841 ft | 491 kts | 71° |
| 2026-04-20 10:42 | 56.68762 | -92.45783 | 40859 ft | 491 kts | 71° |
| 2026-04-20 10:43 | 56.70418 | -92.33741 | 40855 ft | 491 kts | 71° |
| 2026-04-20 10:43 | 56.72061 | -92.21697 | 40862 ft | 490 kts | 72° |
| 2026-04-20 10:44 | 56.73691 | -92.09652 | 40877 ft | 490 kts | 72° |
| 2026-04-20 10:44 | 56.75038 | -91.99622 | 40875 ft | 490 kts | 72° |
| 2026-04-20 10:45 | 56.76646 | -91.87561 | 40880 ft | 490 kts | 72° |
| 2026-04-20 10:45 | 56.78245 | -91.75477 | 40891 ft | 490 kts | 72° |
| 2026-04-20 10:46 | 56.79830 | -91.63393 | 40906 ft | 490 kts | 72° |
| 2026-04-20 10:46 | 56.81402 | -91.51310 | 40902 ft | 490 kts | 72° |
| 2026-04-20 10:47 | 56.82964 | -91.39205 | 40913 ft | 490 kts | 72° |
| 2026-04-20 10:47 | 56.84515 | -91.27089 | 40907 ft | 490 kts | 72° |
| 2026-04-20 10:48 | 56.86055 | -91.14950 | 40936 ft | 490 kts | 73° |
| 2026-04-20 10:48 | 56.87582 | -91.02812 | 40916 ft | 490 kts | 73° |
| 2026-04-20 10:49 | 56.89099 | -90.90653 | 40928 ft | 490 kts | 73° |
| 2026-04-20 10:49 | 56.90605 | -90.78493 | 40927 ft | 490 kts | 73° |
| 2026-04-20 10:50 | 56.92103 | -90.66316 | 40941 ft | 490 kts | 73° |
| 2026-04-20 10:50 | 56.93590 | -90.54126 | 40956 ft | 490 kts | 73° |
| 2026-04-20 10:51 | 56.95059 | -90.41988 | 40935 ft | 488 kts | 73° |
| 2026-04-20 10:51 | 56.96517 | -90.29839 | 40939 ft | 489 kts | 73° |
| 2026-04-20 10:52 | 56.97965 | -90.17671 | 40950 ft | 489 kts | 73° |
| 2026-04-20 10:52 | 56.99552 | -90.05583 | 40932 ft | 482 kts | 63° |
| 2026-04-20 10:52 | 57.01037 | -90.00156 | 40952 ft | 472 kts | 51° |
| 2026-04-20 10:53 | 57.02975 | -89.95338 | 40952 ft | 469 kts | 44° |
| 2026-04-20 10:53 | 57.05351 | -89.91361 | 40917 ft | 457 kts | 29° |
| 2026-04-20 10:53 | 57.07975 | -89.88107 | 40949 ft | 459 kts | 34° |
| 2026-04-20 10:54 | 57.12866 | -89.80468 | 40981 ft | 463 kts | 35° |
| 2026-04-20 10:54 | 57.17827 | -89.72858 | 40949 ft | 464 kts | 35° |
| 2026-04-20 10:55 | 57.22787 | -89.65240 | 40947 ft | 464 kts | 35° |
| 2026-04-20 10:55 | 57.27745 | -89.57599 | 40941 ft | 464 kts | 35° |
| 2026-04-20 10:56 | 57.32699 | -89.49936 | 40950 ft | 464 kts | 35° |
| 2026-04-20 10:56 | 57.37648 | -89.42254 | 40952 ft | 464 kts | 35° |
| 2026-04-20 10:57 | 57.42595 | -89.34544 | 40950 ft | 465 kts | 36° |
| 2026-04-20 10:57 | 57.47542 | -89.26808 | 40958 ft | 465 kts | 36° |
| 2026-04-20 10:58 | 57.52489 | -89.19044 | 40952 ft | 465 kts | 36° |
| 2026-04-20 10:58 | 57.57395 | -89.11316 | 40952 ft | 465 kts | 36° |
| 2026-04-20 10:59 | 57.62361 | -89.03462 | 40961 ft | 465 kts | 36° |
| 2026-04-20 10:59 | 57.67258 | -88.95691 | 40961 ft | 466 kts | 36° |
| 2026-04-20 11:00 | 57.72190 | -88.87835 | 40947 ft | 466 kts | 36° |
| 2026-04-20 11:00 | 57.77123 | -88.79947 | 40945 ft | 466 kts | 36° |
| 2026-04-20 11:01 | 57.82046 | -88.72047 | 40964 ft | 466 kts | 36° |
| 2026-04-20 11:01 | 57.86966 | -88.64122 | 40968 ft | 466 kts | 37° |
| 2026-04-20 11:02 | 57.91884 | -88.56170 | 40974 ft | 466 kts | 37° |
| 2026-04-20 11:02 | 57.96797 | -88.48198 | 40968 ft | 466 kts | 37° |
| 2026-04-20 11:03 | 58.01707 | -88.40199 | 40958 ft | 467 kts | 37° |
| 2026-04-20 11:03 | 58.06616 | -88.32173 | 40960 ft | 467 kts | 37° |
| 2026-04-20 11:04 | 58.11520 | -88.24123 | 40969 ft | 467 kts | 37° |
| 2026-04-20 11:04 | 58.16416 | -88.16056 | 40967 ft | 467 kts | 37° |
| 2026-04-20 11:05 | 58.21309 | -88.07965 | 40977 ft | 467 kts | 37° |
| 2026-04-20 11:05 | 58.26172 | -87.99891 | 40973 ft | 467 kts | 37° |
| 2026-04-20 11:06 | 58.31060 | -87.91745 | 40971 ft | 468 kts | 38° |
| 2026-04-20 11:06 | 58.35951 | -87.83563 | 40969 ft | 468 kts | 38° |
| 2026-04-20 11:07 | 58.40834 | -87.75363 | 40976 ft | 468 kts | 38° |
| 2026-04-20 11:07 | 58.45715 | -87.67134 | 40984 ft | 468 kts | 38° |
| 2026-04-20 11:08 | 58.50588 | -87.58888 | 40972 ft | 468 kts | 38° |
| 2026-04-20 11:08 | 58.55464 | -87.50605 | 40967 ft | 468 kts | 38° |
| 2026-04-20 11:09 | 58.60333 | -87.42302 | 40981 ft | 469 kts | 38° |
| 2026-04-20 11:09 | 58.65200 | -87.33968 | 40970 ft | 469 kts | 38° |
| 2026-04-20 11:10 | 58.70065 | -87.25608 | 40967 ft | 469 kts | 38° |
| 2026-04-20 11:10 | 58.74923 | -87.17224 | 40976 ft | 469 kts | 38° |
| 2026-04-20 11:11 | 58.79781 | -87.08808 | 40965 ft | 469 kts | 39° |
| 2026-04-20 11:11 | 58.84624 | -87.00387 | 40976 ft | 469 kts | 39° |
| 2026-04-20 11:12 | 58.89471 | -86.91924 | 40985 ft | 469 kts | 39° |
| 2026-04-20 11:12 | 58.94310 | -86.83442 | 40980 ft | 469 kts | 39° |
| 2026-04-20 11:13 | 58.99146 | -86.74932 | 40995 ft | 470 kts | 39° |
| 2026-04-20 11:13 | 59.03987 | -86.66378 | 40981 ft | 471 kts | 39° |
| 2026-04-20 11:14 | 59.08792 | -86.57855 | 40980 ft | 471 kts | 39° |
| 2026-04-20 11:14 | 59.13626 | -86.49247 | 40975 ft | 471 kts | 39° |
| 2026-04-20 11:15 | 59.18451 | -86.40620 | 40983 ft | 471 kts | 39° |
| 2026-04-20 11:15 | 59.23273 | -86.31963 | 40979 ft | 471 kts | 40° |
| 2026-04-20 11:16 | 59.28094 | -86.23272 | 40989 ft | 471 kts | 40° |
| 2026-04-20 11:16 | 59.32910 | -86.14557 | 40978 ft | 472 kts | 40° |
| 2026-04-20 11:17 | 59.37723 | -86.05813 | 40986 ft | 472 kts | 40° |
| 2026-04-20 11:17 | 59.42536 | -85.97031 | 40978 ft | 472 kts | 40° |
| 2026-04-20 11:18 | 59.47342 | -85.88226 | 40974 ft | 472 kts | 40° |
| 2026-04-20 11:18 | 59.52143 | -85.79395 | 40985 ft | 472 kts | 40° |
| 2026-04-20 11:19 | 59.56943 | -85.70530 | 40975 ft | 473 kts | 41° |
| 2026-04-20 11:19 | 59.61739 | -85.61636 | 40975 ft | 473 kts | 41° |
| 2026-04-20 11:20 | 59.66528 | -85.52718 | 40977 ft | 473 kts | 41° |
| 2026-04-20 11:20 | 59.71314 | -85.43769 | 40977 ft | 473 kts | 41° |
| 2026-04-20 11:21 | 59.76067 | -85.34845 | 40973 ft | 474 kts | 41° |
| 2026-04-20 11:21 | 59.80878 | -85.25773 | 40992 ft | 474 kts | 41° |
| 2026-04-20 11:22 | 59.85626 | -85.16785 | 40972 ft | 474 kts | 41° |
| 2026-04-20 11:22 | 59.90399 | -85.07710 | 40972 ft | 475 kts | 41° |
| 2026-04-20 11:23 | 59.95163 | -84.98614 | 40970 ft | 475 kts | 42° |
| 2026-04-20 11:23 | 59.99927 | -84.89481 | 40969 ft | 475 kts | 42° |
| 2026-04-20 11:24 | 60.04682 | -84.80326 | 40969 ft | 475 kts | 42° |
| 2026-04-20 11:24 | 60.09437 | -84.71135 | 40975 ft | 475 kts | 42° |
| 2026-04-20 11:25 | 60.14186 | -84.61913 | 40964 ft | 476 kts | 43° |
| 2026-04-20 11:25 | 60.18944 | -84.52637 | 40967 ft | 477 kts | 43° |
| 2026-04-20 11:26 | 60.23691 | -84.43341 | 40966 ft | 477 kts | 43° |
| 2026-04-20 11:26 | 60.28439 | -84.34004 | 40964 ft | 477 kts | 43° |
| 2026-04-20 11:27 | 60.33181 | -84.24637 | 40965 ft | 477 kts | 43° |
| 2026-04-20 11:27 | 60.37917 | -84.15244 | 40965 ft | 477 kts | 43° |
| 2026-04-20 11:28 | 60.42649 | -84.05818 | 40956 ft | 478 kts | 43° |
| 2026-04-20 11:28 | 60.47379 | -83.96355 | 40958 ft | 478 kts | 43° |
| 2026-04-20 11:29 | 60.52098 | -83.86872 | 40950 ft | 478 kts | 44° |
| 2026-04-20 11:29 | 60.56828 | -83.77327 | 40958 ft | 480 kts | 44° |
| 2026-04-20 11:30 | 60.61556 | -83.67742 | 40963 ft | 480 kts | 44° |
| 2026-04-20 11:30 | 60.65482 | -83.59752 | 40957 ft | 480 kts | 44° |
| 2026-04-20 11:31 | 60.70202 | -83.50108 | 40953 ft | 480 kts | 44° |
| 2026-04-20 11:31 | 60.74915 | -83.40435 | 40948 ft | 480 kts | 44° |
| 2026-04-20 11:32 | 60.79623 | -83.30730 | 40947 ft | 480 kts | 44° |
| 2026-04-20 11:32 | 60.84328 | -83.20988 | 40942 ft | 480 kts | 44° |
| 2026-04-20 11:33 | 60.89017 | -83.11236 | 40951 ft | 481 kts | 45° |
| 2026-04-20 11:33 | 60.93718 | -83.01415 | 40932 ft | 482 kts | 45° |
| 2026-04-20 11:34 | 60.98419 | -82.91549 | 40938 ft | 483 kts | 45° |
| 2026-04-20 11:34 | 61.03083 | -82.81717 | 40932 ft | 483 kts | 45° |
| 2026-04-20 11:35 | 61.07768 | -82.71799 | 40932 ft | 483 kts | 45° |
| 2026-04-20 11:35 | 61.12449 | -82.61842 | 40931 ft | 483 kts | 45° |
| 2026-04-20 11:36 | 61.17126 | -82.51848 | 40928 ft | 483 kts | 45° |
| 2026-04-20 11:36 | 61.21793 | -82.41832 | 40920 ft | 483 kts | 45° |
| 2026-04-20 11:37 | 61.26464 | -82.31761 | 40920 ft | 483 kts | 45° |
| 2026-04-20 11:37 | 61.33443 | -82.16626 | 40916 ft | 483 kts | 46° |
| 2026-04-20 11:38 | 61.38090 | -82.06489 | 40908 ft | 483 kts | 46° |
| 2026-04-20 11:38 | 61.42729 | -81.96324 | 40906 ft | 483 kts | 46° |
| 2026-04-20 11:39 | 61.47360 | -81.86131 | 40905 ft | 483 kts | 46° |
| 2026-04-20 11:39 | 61.51984 | -81.75906 | 40909 ft | 484 kts | 46° |
| 2026-04-20 11:40 | 61.56602 | -81.65646 | 40905 ft | 483 kts | 46° |
| 2026-04-20 11:40 | 61.61209 | -81.55363 | 40906 ft | 484 kts | 46° |
| 2026-04-20 11:41 | 61.65811 | -81.45046 | 40889 ft | 484 kts | 47° |
| 2026-04-20 11:41 | 61.70423 | -81.34655 | 40897 ft | 487 kts | 47° |
| 2026-04-20 11:42 | 61.75039 | -81.24205 | 40891 ft | 487 kts | 47° |
| 2026-04-20 11:42 | 61.79645 | -81.13730 | 40889 ft | 487 kts | 47° |
| 2026-04-20 11:43 | 61.84247 | -81.03227 | 40884 ft | 487 kts | 47° |
| 2026-04-20 11:43 | 61.88842 | -80.92691 | 40887 ft | 487 kts | 47° |
| 2026-04-20 11:44 | 61.93399 | -80.82198 | 40883 ft | 487 kts | 47° |
| 2026-04-20 11:44 | 61.97986 | -80.71584 | 40873 ft | 487 kts | 47° |
| 2026-04-20 11:45 | 62.02566 | -80.60938 | 40863 ft | 487 kts | 48° |
| 2026-04-20 11:45 | 62.07145 | -80.50245 | 40880 ft | 490 kts | 48° |
| 2026-04-20 11:46 | 62.11733 | -80.39483 | 40863 ft | 490 kts | 48° |
| 2026-04-20 11:46 | 62.16310 | -80.28696 | 40870 ft | 490 kts | 48° |
| 2026-04-20 11:47 | 62.20874 | -80.17890 | 40864 ft | 490 kts | 49° |
| 2026-04-20 11:47 | 62.25442 | -80.07025 | 40861 ft | 490 kts | 49° |
| 2026-04-20 11:48 | 62.29531 | -79.95430 | 40857 ft | 484 kts | 64° |
| 2026-04-20 11:48 | 62.32846 | -79.82754 | 40837 ft | 487 kts | 62° |
| 2026-04-20 11:49 | 62.36203 | -79.70044 | 40829 ft | 489 kts | 62° |
| 2026-04-20 11:49 | 62.39549 | -79.57279 | 40840 ft | 490 kts | 62° |
| 2026-04-20 11:50 | 62.42886 | -79.44473 | 40843 ft | 489 kts | 62° |
| 2026-04-20 11:50 | 62.46190 | -79.31719 | 40840 ft | 490 kts | 63° |
| 2026-04-20 11:51 | 62.49503 | -79.18860 | 40836 ft | 490 kts | 63° |
| 2026-04-20 11:51 | 62.52827 | -79.05880 | 40828 ft | 490 kts | 63° |
| 2026-04-20 11:52 | 62.56094 | -78.93047 | 40831 ft | 490 kts | 63° |
| 2026-04-20 11:52 | 62.59373 | -78.80094 | 40820 ft | 490 kts | 63° |
| 2026-04-20 11:53 | 62.62646 | -78.67088 | 40816 ft | 490 kts | 63° |
| 2026-04-20 11:53 | 62.65903 | -78.54070 | 40818 ft | 490 kts | 63° |
| 2026-04-20 11:54 | 62.69150 | -78.41014 | 40816 ft | 491 kts | 64° |
| 2026-04-20 11:54 | 62.72385 | -78.27927 | 40810 ft | 491 kts | 64° |
| 2026-04-20 11:55 | 62.75610 | -78.14805 | 40803 ft | 491 kts | 64° |
| 2026-04-20 11:55 | 62.78820 | -78.01665 | 40770 ft | 490 kts | 64° |
| 2026-04-20 11:56 | 62.82019 | -77.88493 | 40799 ft | 491 kts | 64° |
| 2026-04-20 11:56 | 62.85207 | -77.75283 | 40790 ft | 490 kts | 64° |
| 2026-04-20 11:57 | 62.88381 | -77.62055 | 40783 ft | 490 kts | 65° |
| 2026-04-20 11:57 | 62.91542 | -77.48797 | 40783 ft | 491 kts | 65° |
| 2026-04-20 11:58 | 62.94692 | -77.35508 | 40774 ft | 491 kts | 65° |
| 2026-04-20 11:58 | 62.97827 | -77.22196 | 40766 ft | 490 kts | 65° |
| 2026-04-20 11:59 | 63.00930 | -77.08941 | 40749 ft | 490 kts | 65° |
| 2026-04-20 11:59 | 63.04043 | -76.95564 | 40748 ft | 491 kts | 65° |
| 2026-04-20 12:00 | 63.07143 | -76.82155 | 40752 ft | 491 kts | 66° |
| 2026-04-20 12:00 | 63.10231 | -76.68719 | 40752 ft | 491 kts | 66° |
| 2026-04-20 12:01 | 63.13308 | -76.55245 | 40734 ft | 491 kts | 66° |
| 2026-04-20 12:01 | 63.16367 | -76.41765 | 40732 ft | 490 kts | 66° |
| 2026-04-20 12:02 | 63.19414 | -76.28255 | 40733 ft | 490 kts | 66° |
| 2026-04-20 12:02 | 63.22449 | -76.14713 | 40711 ft | 491 kts | 66° |
| 2026-04-20 12:03 | 63.25472 | -76.01134 | 40718 ft | 491 kts | 66° |
| 2026-04-20 12:03 | 63.28483 | -75.87528 | 40713 ft | 490 kts | 67° |
| 2026-04-20 12:04 | 63.31478 | -75.73901 | 40705 ft | 490 kts | 67° |
| 2026-04-20 12:04 | 63.34441 | -75.60335 | 40705 ft | 490 kts | 67° |
| 2026-04-20 12:05 | 63.37412 | -75.46650 | 40700 ft | 490 kts | 67° |
| 2026-04-20 12:05 | 63.40369 | -75.32933 | 40668 ft | 490 kts | 68° |
| 2026-04-20 12:06 | 63.43315 | -75.19182 | 40702 ft | 492 kts | 68° |
| 2026-04-20 12:06 | 63.46251 | -75.05390 | 40684 ft | 491 kts | 68° |
| 2026-04-20 12:07 | 63.49169 | -74.91586 | 40688 ft | 491 kts | 68° |
| 2026-04-20 12:07 | 63.52074 | -74.77754 | 40680 ft | 491 kts | 68° |
| 2026-04-20 12:08 | 63.54969 | -74.63881 | 40670 ft | 491 kts | 69° |
| 2026-04-20 12:08 | 63.57851 | -74.49974 | 40672 ft | 491 kts | 69° |
| 2026-04-20 12:09 | 63.60718 | -74.36051 | 40630 ft | 491 kts | 69° |
| 2026-04-20 12:09 | 63.63578 | -74.22066 | 40660 ft | 493 kts | 69° |
| 2026-04-20 12:10 | 63.66427 | -74.08038 | 40659 ft | 492 kts | 69° |
| 2026-04-20 12:10 | 63.69264 | -73.93975 | 40660 ft | 492 kts | 70° |
| 2026-04-20 12:11 | 63.72083 | -73.79903 | 40651 ft | 492 kts | 70° |
| 2026-04-20 12:11 | 63.74889 | -73.65799 | 40645 ft | 492 kts | 70° |
| 2026-04-20 12:12 | 63.77680 | -73.51676 | 40643 ft | 492 kts | 70° |
| 2026-04-20 12:12 | 63.80458 | -73.37519 | 40640 ft | 492 kts | 70° |
| 2026-04-20 12:13 | 63.83221 | -73.23340 | 40632 ft | 492 kts | 70° |
| 2026-04-20 12:13 | 63.85970 | -73.09136 | 40630 ft | 492 kts | 70° |
| 2026-04-20 12:14 | 63.88687 | -72.94997 | 40634 ft | 492 kts | 70° |
| 2026-04-20 12:14 | 63.91424 | -72.80655 | 40628 ft | 492 kts | 71° |
| 2026-04-20 12:15 | 63.94132 | -72.66356 | 40633 ft | 492 kts | 71° |
| 2026-04-20 12:15 | 63.96823 | -72.52055 | 40579 ft | 492 kts | 71° |
| 2026-04-20 12:16 | 63.99507 | -72.37678 | 40619 ft | 494 kts | 71° |
| 2026-04-20 12:16 | 64.02182 | -72.23251 | 40605 ft | 494 kts | 72° |
| 2026-04-20 12:17 | 64.04822 | -72.08912 | 40611 ft | 494 kts | 72° |
| 2026-04-20 12:17 | 64.07466 | -71.94444 | 40617 ft | 494 kts | 72° |
| 2026-04-20 12:18 | 64.10094 | -71.79954 | 40600 ft | 493 kts | 72° |
| 2026-04-20 12:18 | 64.12707 | -71.65440 | 40600 ft | 493 kts | 72° |
| 2026-04-20 12:19 | 64.15308 | -71.50889 | 40560 ft | 494 kts | 73° |
| 2026-04-20 12:19 | 64.17480 | -71.38652 | 40583 ft | 495 kts | 73° |
| 2026-04-20 12:20 | 64.20060 | -71.24019 | 40585 ft | 495 kts | 73° |
| 2026-04-20 12:20 | 64.22606 | -71.09464 | 40588 ft | 494 kts | 73° |
| 2026-04-20 12:21 | 64.25155 | -70.94788 | 40576 ft | 494 kts | 73° |
| 2026-04-20 12:21 | 64.27688 | -70.80086 | 40573 ft | 494 kts | 73° |
| 2026-04-20 12:22 | 64.30204 | -70.65370 | 40577 ft | 494 kts | 73° |
| 2026-04-20 12:22 | 64.32708 | -70.50610 | 40531 ft | 494 kts | 74° |
| 2026-04-20 12:23 | 64.35198 | -70.35825 | 40572 ft | 494 kts | 74° |
| 2026-04-20 12:23 | 64.37671 | -70.21024 | 40572 ft | 494 kts | 74° |
| 2026-04-20 12:24 | 64.40128 | -70.06199 | 40566 ft | 494 kts | 74° |
| 2026-04-20 12:24 | 64.42568 | -69.91363 | 40572 ft | 494 kts | 75° |
| 2026-04-20 12:25 | 64.44994 | -69.76490 | 40578 ft | 494 kts | 75° |
| 2026-04-20 12:25 | 64.47404 | -69.61603 | 40578 ft | 493 kts | 75° |
| 2026-04-20 12:26 | 64.49798 | -69.46690 | 40558 ft | 494 kts | 75° |
| 2026-04-20 12:26 | 64.52186 | -69.31698 | 40584 ft | 495 kts | 75° |
| 2026-04-20 12:27 | 64.54554 | -69.16704 | 40572 ft | 494 kts | 76° |
| 2026-04-20 12:27 | 64.56908 | -69.01684 | 40577 ft | 494 kts | 76° |
| 2026-04-20 12:28 | 64.59245 | -68.86648 | 40576 ft | 494 kts | 76° |
| 2026-04-20 12:28 | 64.61565 | -68.71590 | 40572 ft | 494 kts | 76° |
| 2026-04-20 12:29 | 64.63872 | -68.56496 | 40574 ft | 494 kts | 76° |
| 2026-04-20 12:29 | 64.66163 | -68.41381 | 40569 ft | 496 kts | 76° |
| 2026-04-20 12:30 | 64.68457 | -68.26151 | 40566 ft | 497 kts | 77° |
| 2026-04-20 12:30 | 64.70736 | -68.10902 | 40577 ft | 497 kts | 77° |
| 2026-04-20 12:31 | 64.73001 | -67.95630 | 40574 ft | 497 kts | 77° |
| 2026-04-20 12:31 | 64.75248 | -67.80358 | 40563 ft | 496 kts | 77° |
| 2026-04-20 12:32 | 64.77469 | -67.65146 | 40576 ft | 496 kts | 77° |
| 2026-04-20 12:32 | 64.79690 | -67.49806 | 40530 ft | 496 kts | 78° |
| 2026-04-20 12:33 | 64.81901 | -67.34414 | 40577 ft | 499 kts | 78° |
| 2026-04-20 12:33 | 64.84101 | -67.18974 | 40558 ft | 498 kts | 78° |
| 2026-04-20 12:34 | 64.86290 | -67.03475 | 40571 ft | 499 kts | 77° |
| 2026-04-20 12:34 | 64.88962 | -66.88286 | 40590 ft | 504 kts | 72° |
| 2026-04-20 12:35 | 64.91810 | -66.73190 | 40578 ft | 504 kts | 72° |
| 2026-04-20 12:35 | 64.94672 | -66.58091 | 40586 ft | 504 kts | 72° |
| 2026-04-20 12:36 | 64.97521 | -66.42967 | 40549 ft | 504 kts | 72° |
| 2026-04-20 12:36 | 65.00356 | -66.27794 | 40596 ft | 506 kts | 72° |
| 2026-04-20 12:37 | 65.03184 | -66.12552 | 40592 ft | 506 kts | 72° |
| 2026-04-20 12:37 | 65.06001 | -65.97253 | 40603 ft | 506 kts | 73° |
| 2026-04-20 12:38 | 65.08779 | -65.82049 | 40603 ft | 506 kts | 73° |
| 2026-04-20 12:38 | 65.11560 | -65.66710 | 40603 ft | 506 kts | 73° |
| 2026-04-20 12:39 | 65.15700 | -65.43651 | 40612 ft | 506 kts | 73° |
| 2026-04-20 12:40 | 65.18441 | -65.28234 | 40556 ft | 506 kts | 73° |
| 2026-04-20 12:40 | 65.21170 | -65.12765 | 40619 ft | 508 kts | 73° |
| 2026-04-20 12:41 | 65.23890 | -64.97223 | 40618 ft | 508 kts | 73° |
| 2026-04-20 12:41 | 65.26595 | -64.81653 | 40636 ft | 508 kts | 74° |
| 2026-04-20 12:42 | 65.29282 | -64.66049 | 40620 ft | 507 kts | 74° |
| 2026-04-20 12:42 | 65.31950 | -64.50435 | 40635 ft | 508 kts | 74° |
| 2026-04-20 12:43 | 65.34606 | -64.34763 | 40636 ft | 507 kts | 74° |
| 2026-04-20 12:43 | 65.37240 | -64.19095 | 40632 ft | 508 kts | 74° |
| 2026-04-20 12:44 | 65.39867 | -64.03337 | 40599 ft | 508 kts | 75° |
| 2026-04-20 12:44 | 65.42482 | -63.87522 | 40653 ft | 510 kts | 75° |
| 2026-04-20 12:45 | 65.45082 | -63.71667 | 40664 ft | 510 kts | 75° |
| 2026-04-20 12:45 | 65.47663 | -63.55799 | 40652 ft | 509 kts | 75° |
| 2026-04-20 12:46 | 65.50227 | -63.39895 | 40656 ft | 509 kts | 75° |
| 2026-04-20 12:46 | 65.52757 | -63.24073 | 40655 ft | 509 kts | 75° |
| 2026-04-20 12:47 | 65.55288 | -63.08110 | 40659 ft | 509 kts | 76° |
| 2026-04-20 12:47 | 65.57797 | -62.92144 | 40659 ft | 509 kts | 76° |
| 2026-04-20 12:48 | 65.60294 | -62.76121 | 40664 ft | 508 kts | 76° |
| 2026-04-20 12:48 | 65.62771 | -62.60087 | 40661 ft | 509 kts | 76° |
| 2026-04-20 12:49 | 65.65230 | -62.44030 | 40662 ft | 508 kts | 76° |
| 2026-04-20 12:49 | 65.67671 | -62.27949 | 40652 ft | 508 kts | 76° |
| 2026-04-20 12:50 | 65.70095 | -62.11838 | 40667 ft | 509 kts | 76° |
| 2026-04-20 12:50 | 65.72502 | -61.95697 | 40667 ft | 508 kts | 76° |
| 2026-04-20 12:51 | 65.74893 | -61.79516 | 40666 ft | 508 kts | 77° |
| 2026-04-20 12:51 | 65.77265 | -61.63322 | 40638 ft | 508 kts | 77° |
| 2026-04-20 12:52 | 65.79607 | -61.47187 | 40673 ft | 508 kts | 77° |
| 2026-04-20 12:52 | 65.81944 | -61.30939 | 40672 ft | 508 kts | 77° |
| 2026-04-20 12:53 | 65.84263 | -61.14663 | 40668 ft | 508 kts | 78° |
| 2026-04-20 12:53 | 65.86565 | -60.98359 | 40678 ft | 508 kts | 78° |
| 2026-04-20 12:54 | 65.88850 | -60.82021 | 40675 ft | 508 kts | 78° |
| 2026-04-20 12:54 | 65.91120 | -60.65653 | 40688 ft | 508 kts | 78° |
| 2026-04-20 12:55 | 65.93376 | -60.49270 | 40690 ft | 507 kts | 78° |
| 2026-04-20 12:55 | 65.95607 | -60.32927 | 40695 ft | 505 kts | 78° |
| 2026-04-20 12:56 | 65.97816 | -60.16607 | 40682 ft | 504 kts | 79° |
| 2026-04-20 12:56 | 66.00009 | -60.00249 | 40696 ft | 505 kts | 79° |
| 2026-04-20 12:57 | 66.02222 | -59.83881 | 40694 ft | 505 kts | 79° |
| 2026-04-20 12:57 | 66.04419 | -59.67619 | 40703 ft | 505 kts | 79° |
| 2026-04-20 12:58 | 66.06617 | -59.51202 | 40702 ft | 504 kts | 79° |
| 2026-04-20 12:58 | 66.08795 | -59.34779 | 40703 ft | 504 kts | 79° |
| 2026-04-20 12:59 | 66.10954 | -59.18337 | 40668 ft | 503 kts | 79° |
| 2026-04-20 12:59 | 66.13087 | -59.01937 | 40712 ft | 502 kts | 79° |
| 2026-04-20 13:00 | 66.15201 | -58.85512 | 40715 ft | 501 kts | 79° |
| 2026-04-20 13:00 | 66.17297 | -58.69077 | 40728 ft | 501 kts | 80° |
| 2026-04-20 13:01 | 66.19373 | -58.52628 | 40733 ft | 501 kts | 80° |
| 2026-04-20 13:01 | 66.21433 | -58.36138 | 40726 ft | 501 kts | 80° |
| 2026-04-20 13:02 | 66.23474 | -58.19635 | 40739 ft | 501 kts | 80° |
| 2026-04-20 13:02 | 66.25497 | -58.03109 | 40727 ft | 501 kts | 80° |
| 2026-04-20 13:03 | 66.27506 | -57.86534 | 40707 ft | 502 kts | 80° |
| 2026-04-20 13:03 | 66.29497 | -57.69923 | 40744 ft | 502 kts | 80° |
| 2026-04-20 13:04 | 66.31455 | -57.53420 | 40744 ft | 501 kts | 81° |
| 2026-04-20 13:04 | 66.33408 | -57.36786 | 40743 ft | 501 kts | 81° |
| 2026-04-20 13:05 | 66.35343 | -57.20125 | 40747 ft | 501 kts | 81° |
| 2026-04-20 13:05 | 66.37259 | -57.03453 | 40749 ft | 501 kts | 81° |
| 2026-04-20 13:06 | 66.39157 | -56.86751 | 40746 ft | 501 kts | 81° |
| 2026-04-20 13:06 | 66.41040 | -56.70005 | 40745 ft | 501 kts | 81° |
| 2026-04-20 13:07 | 66.42903 | -56.53248 | 40742 ft | 501 kts | 81° |
| 2026-04-20 13:07 | 66.44750 | -56.36445 | 40753 ft | 501 kts | 81° |
| 2026-04-20 13:08 | 66.46576 | -56.19648 | 40773 ft | 501 kts | 81° |
| 2026-04-20 13:08 | 66.48385 | -56.02820 | 40778 ft | 500 kts | 82° |
| 2026-04-20 13:09 | 66.50175 | -55.85967 | 40769 ft | 500 kts | 81° |
| 2026-04-20 13:09 | 66.51649 | -55.71950 | 40787 ft | 500 kts | 82° |
| 2026-04-20 13:10 | 66.53405 | -55.55062 | 40799 ft | 500 kts | 82° |
| 2026-04-20 13:10 | 66.55142 | -55.38166 | 40810 ft | 500 kts | 82° |
| 2026-04-20 13:11 | 66.56860 | -55.21253 | 40789 ft | 499 kts | 82° |
| 2026-04-20 13:11 | 66.58558 | -55.04323 | 40822 ft | 499 kts | 82° |
| 2026-04-20 13:12 | 66.60238 | -54.87377 | 40827 ft | 499 kts | 82° |
| 2026-04-20 13:12 | 66.61899 | -54.70422 | 40825 ft | 499 kts | 82° |
| 2026-04-20 13:13 | 66.63542 | -54.53422 | 40838 ft | 500 kts | 82° |
| 2026-04-20 13:13 | 66.65169 | -54.36394 | 40858 ft | 500 kts | 82° |
| 2026-04-20 13:14 | 66.66765 | -54.19464 | 40857 ft | 499 kts | 83° |
| 2026-04-20 13:14 | 66.68353 | -54.02416 | 40874 ft | 499 kts | 83° |
| 2026-04-20 13:15 | 66.69923 | -53.85323 | 40880 ft | 500 kts | 83° |
| 2026-04-20 13:15 | 66.71476 | -53.68208 | 40874 ft | 499 kts | 83° |
| 2026-04-20 13:16 | 66.73010 | -53.51067 | 40892 ft | 502 kts | 83° |
| 2026-04-20 13:16 | 66.74532 | -53.33832 | 40893 ft | 502 kts | 83° |
| 2026-04-20 13:17 | 66.76034 | -53.16582 | 40889 ft | 501 kts | 83° |
| 2026-04-20 13:17 | 66.77516 | -52.99334 | 40901 ft | 502 kts | 83° |
| 2026-04-20 13:18 | 66.78980 | -52.82055 | 40890 ft | 501 kts | 83° |
| 2026-04-20 13:18 | 66.80424 | -52.64767 | 40899 ft | 501 kts | 83° |
| 2026-04-20 13:19 | 66.81841 | -52.47554 | 40908 ft | 502 kts | 83° |
| 2026-04-20 13:19 | 66.83250 | -52.30186 | 40901 ft | 502 kts | 83° |
| 2026-04-20 13:20 | 66.84641 | -52.12798 | 40882 ft | 501 kts | 83° |
| 2026-04-20 13:20 | 66.86010 | -51.95419 | 40891 ft | 502 kts | 84° |
| 2026-04-20 13:21 | 66.87360 | -51.78015 | 40900 ft | 502 kts | 84° |
| 2026-04-20 13:21 | 66.88692 | -51.60580 | 40907 ft | 502 kts | 84° |
| 2026-04-20 13:22 | 66.90003 | -51.43153 | 40917 ft | 502 kts | 84° |
| 2026-04-20 13:22 | 66.91301 | -51.25628 | 40930 ft | 505 kts | 84° |
| 2026-04-20 13:23 | 66.92584 | -51.08023 | 40955 ft | 505 kts | 83° |
| 2026-04-20 13:23 | 66.93853 | -50.90384 | 40961 ft | 505 kts | 83° |
| 2026-04-20 13:24 | 66.95104 | -50.72762 | 40961 ft | 505 kts | 84° |
| 2026-04-20 13:24 | 66.96338 | -50.55124 | 40938 ft | 505 kts | 84° |
| 2026-04-20 13:25 | 66.97553 | -50.37475 | 40941 ft | 505 kts | 84° |
| 2026-04-20 13:25 | 66.98751 | -50.19808 | 40950 ft | 504 kts | 83° |
| 2026-04-20 13:26 | 66.99918 | -50.02164 | 40974 ft | 502 kts | 86° |
| 2026-04-20 13:26 | 67.00379 | -49.84443 | 40966 ft | 500 kts | 90° |
| 2026-04-20 13:27 | 67.00891 | -49.66709 | 40991 ft | 500 kts | 89° |
| 2026-04-20 13:27 | 67.01403 | -49.48970 | 41030 ft | 500 kts | 90° |
| 2026-04-20 13:28 | 67.01893 | -49.31335 | 41043 ft | 500 kts | 90° |
| 2026-04-20 13:28 | 67.02366 | -49.13606 | 41069 ft | 500 kts | 90° |
| 2026-04-20 13:29 | 67.02820 | -48.95844 | 41069 ft | 500 kts | 90° |
| 2026-04-20 13:29 | 67.03254 | -48.78074 | 41073 ft | 501 kts | 90° |
| 2026-04-20 13:30 | 67.03668 | -48.60302 | 41044 ft | 500 kts | 89° |
| 2026-04-20 13:30 | 67.04061 | -48.42588 | 41106 ft | 497 kts | 90° |
| 2026-04-20 13:31 | 67.04433 | -48.24927 | 41106 ft | 496 kts | 90° |
| 2026-04-20 13:31 | 67.04786 | -48.07270 | 41106 ft | 496 kts | 90° |
| 2026-04-20 13:32 | 67.05118 | -47.89616 | 41117 ft | 496 kts | 90° |
| 2026-04-20 13:32 | 67.05432 | -47.71956 | 41120 ft | 496 kts | 90° |
| 2026-04-20 13:33 | 67.05726 | -47.54275 | 41119 ft | 497 kts | 90° |
| 2026-04-20 13:33 | 67.06000 | -47.36585 | 41098 ft | 496 kts | 91° |
| 2026-04-20 13:34 | 67.06255 | -47.18971 | 41134 ft | 499 kts | 91° |
| 2026-04-20 13:34 | 67.06491 | -47.01207 | 41147 ft | 498 kts | 90° |
| 2026-04-20 13:35 | 67.06707 | -46.83461 | 41161 ft | 499 kts | 91° |
| 2026-04-20 13:35 | 67.06904 | -46.65670 | 41162 ft | 499 kts | 91° |
| 2026-04-20 13:36 | 67.07081 | -46.47901 | 41173 ft | 499 kts | 91° |
| 2026-04-20 13:36 | 67.07238 | -46.30153 | 41185 ft | 498 kts | 92° |
| 2026-04-20 13:37 | 67.07375 | -46.12424 | 41192 ft | 497 kts | 92° |
| 2026-04-20 13:37 | 67.07492 | -45.94689 | 41230 ft | 496 kts | 91° |
| 2026-04-20 13:38 | 67.07589 | -45.76990 | 41221 ft | 495 kts | 91° |
| 2026-04-20 13:38 | 67.07667 | -45.59300 | 41230 ft | 496 kts | 92° |
| 2026-04-20 13:39 | 67.07725 | -45.41600 | 41265 ft | 496 kts | 92° |
| 2026-04-20 13:39 | 67.07763 | -45.23906 | 41258 ft | 497 kts | 92° |
| 2026-04-20 13:40 | 67.07782 | -45.06224 | 41264 ft | 496 kts | 92° |
| 2026-04-20 13:40 | 67.07782 | -44.88528 | 41269 ft | 497 kts | 92° |
| 2026-04-20 13:41 | 67.07762 | -44.70836 | 41262 ft | 496 kts | 91° |
| 2026-04-20 13:41 | 67.07722 | -44.53224 | 41288 ft | 496 kts | 91° |
| 2026-04-20 13:42 | 67.07663 | -44.35419 | 41301 ft | 496 kts | 92° |
| 2026-04-20 13:42 | 67.07537 | -44.09016 | 41286 ft | 495 kts | 92° |
| 2026-04-20 13:43 | 67.07429 | -43.91328 | 41312 ft | 495 kts | 92° |
| 2026-04-20 13:43 | 67.07301 | -43.73672 | 41319 ft | 494 kts | 92° |
| 2026-04-20 13:44 | 67.07154 | -43.56035 | 41322 ft | 495 kts | 93° |
| 2026-04-20 13:44 | 67.06987 | -43.38403 | 41331 ft | 494 kts | 92° |
| 2026-04-20 13:45 | 67.06802 | -43.20877 | 41313 ft | 492 kts | 92° |
| 2026-04-20 13:45 | 67.06599 | -43.03348 | 41315 ft | 492 kts | 93° |
| 2026-04-20 13:46 | 67.06375 | -42.85799 | 41349 ft | 492 kts | 92° |
| 2026-04-20 13:46 | 67.06132 | -42.68273 | 41365 ft | 491 kts | 93° |
| 2026-04-20 13:47 | 67.05871 | -42.50784 | 41370 ft | 489 kts | 93° |
| 2026-04-20 13:47 | 67.05592 | -42.33429 | 41362 ft | 489 kts | 93° |
| 2026-04-20 13:48 | 67.05295 | -42.16075 | 41354 ft | 485 kts | 93° |
| 2026-04-20 13:48 | 67.04982 | -41.98892 | 41370 ft | 480 kts | 93° |
| 2026-04-20 13:49 | 67.04652 | -41.81765 | 41392 ft | 481 kts | 93° |
| 2026-04-20 13:49 | 67.04303 | -41.64642 | 41388 ft | 482 kts | 93° |
| 2026-04-20 13:50 | 67.03934 | -41.47489 | 41379 ft | 483 kts | 94° |
| 2026-04-20 13:50 | 67.03548 | -41.30353 | 41382 ft | 481 kts | 94° |
| 2026-04-20 13:51 | 67.03146 | -41.13333 | 41403 ft | 481 kts | 94° |
| 2026-04-20 13:51 | 67.02725 | -40.96232 | 41402 ft | 482 kts | 94° |
| 2026-04-20 13:52 | 67.02295 | -40.79255 | 41398 ft | 476 kts | 94° |
| 2026-04-20 13:52 | 67.01851 | -40.62410 | 41391 ft | 474 kts | 94° |
| 2026-04-20 13:53 | 67.01392 | -40.45586 | 41400 ft | 473 kts | 94° |
| 2026-04-20 13:53 | 67.00917 | -40.28760 | 41423 ft | 474 kts | 94° |
| 2026-04-20 13:54 | 67.00426 | -40.11969 | 41422 ft | 475 kts | 95° |
| 2026-04-20 13:54 | 66.99666 | -39.95257 | 41439 ft | 472 kts | 102° |
| 2026-04-20 13:55 | 66.98495 | -39.78673 | 41427 ft | 472 kts | 100° |
| 2026-04-20 13:55 | 66.97381 | -39.62124 | 41434 ft | 472 kts | 100° |
| 2026-04-20 13:56 | 66.96262 | -39.45693 | 41424 ft | 469 kts | 100° |
| 2026-04-20 13:56 | 66.95123 | -39.29217 | 41449 ft | 470 kts | 100° |
| 2026-04-20 13:57 | 66.93972 | -39.12827 | 41433 ft | 471 kts | 100° |
| 2026-04-20 13:57 | 66.92803 | -38.96442 | 41453 ft | 468 kts | 100° |
| 2026-04-20 13:58 | 66.91624 | -38.80163 | 41457 ft | 471 kts | 101° |
| 2026-04-20 13:58 | 66.90617 | -38.66457 | 41433 ft | 470 kts | 101° |
| 2026-04-20 13:59 | 66.89198 | -38.47407 | 41448 ft | 470 kts | 100° |
| 2026-04-20 13:59 | 66.87961 | -38.31086 | 41469 ft | 470 kts | 100° |
| 2026-04-20 14:00 | 66.86912 | -38.17423 | 41464 ft | 470 kts | 100° |
| 2026-04-20 14:00 | 66.85644 | -38.01117 | 41453 ft | 470 kts | 100° |
| 2026-04-20 14:01 | 66.84359 | -37.84827 | 41454 ft | 470 kts | 100° |
| 2026-04-20 14:01 | 66.83059 | -37.68575 | 41458 ft | 470 kts | 101° |
| 2026-04-20 14:02 | 66.81749 | -37.52424 | 41440 ft | 470 kts | 101° |
| 2026-04-20 14:02 | 66.80415 | -37.36194 | 41441 ft | 470 kts | 101° |
| 2026-04-20 14:03 | 66.79058 | -37.19907 | 41456 ft | 474 kts | 101° |
| 2026-04-20 14:03 | 66.77677 | -37.03554 | 41454 ft | 475 kts | 101° |
| 2026-04-20 14:04 | 66.76277 | -36.87209 | 41457 ft | 475 kts | 101° |
| 2026-04-20 14:04 | 66.74863 | -36.70902 | 41481 ft | 475 kts | 101° |
| 2026-04-20 14:05 | 66.73431 | -36.54593 | 41474 ft | 474 kts | 101° |
| 2026-04-20 14:05 | 66.71981 | -36.38301 | 41501 ft | 475 kts | 102° |
| 2026-04-20 14:06 | 66.70517 | -36.22061 | 41514 ft | 473 kts | 102° |
| 2026-04-20 14:06 | 66.69038 | -36.05852 | 41509 ft | 473 kts | 102° |
| 2026-04-20 14:07 | 66.67543 | -35.89678 | 41515 ft | 473 kts | 102° |
| 2026-04-20 14:07 | 66.66032 | -35.73524 | 41528 ft | 473 kts | 103° |
| 2026-04-20 14:08 | 66.64506 | -35.57406 | 41518 ft | 473 kts | 103° |
| 2026-04-20 14:08 | 66.62972 | -35.41394 | 41554 ft | 473 kts | 103° |
| 2026-04-20 14:09 | 66.61411 | -35.25296 | 41538 ft | 473 kts | 103° |
| 2026-04-20 14:09 | 66.59835 | -35.09226 | 41548 ft | 473 kts | 104° |
| 2026-04-20 14:10 | 66.58241 | -34.93168 | 41562 ft | 473 kts | 104° |
| 2026-04-20 14:10 | 66.56634 | -34.77164 | 41563 ft | 473 kts | 104° |
| 2026-04-20 14:11 | 66.55007 | -34.61143 | 41568 ft | 472 kts | 104° |
| 2026-04-20 14:11 | 66.53376 | -34.45258 | 41557 ft | 470 kts | 105° |
| 2026-04-20 14:12 | 66.51727 | -34.29383 | 41563 ft | 470 kts | 105° |
| 2026-04-20 14:12 | 66.50064 | -34.13538 | 41562 ft | 470 kts | 105° |
| 2026-04-20 14:13 | 66.48385 | -33.97727 | 41563 ft | 470 kts | 106° |
| 2026-04-20 14:13 | 66.46684 | -33.81870 | 41562 ft | 472 kts | 106° |
| 2026-04-20 14:14 | 66.44971 | -33.66076 | 41562 ft | 471 kts | 106° |
| 2026-04-20 14:14 | 66.43238 | -33.50266 | 41551 ft | 471 kts | 106° |
| 2026-04-20 14:15 | 66.41492 | -33.34517 | 41559 ft | 471 kts | 106° |
| 2026-04-20 14:15 | 66.39730 | -33.18776 | 41549 ft | 469 kts | 107° |
| 2026-04-20 14:16 | 66.37959 | -33.03117 | 41561 ft | 469 kts | 107° |
| 2026-04-20 14:16 | 66.36186 | -32.87605 | 41553 ft | 468 kts | 107° |
| 2026-04-20 14:17 | 66.34389 | -32.72042 | 41556 ft | 468 kts | 107° |
| 2026-04-20 14:17 | 66.32575 | -32.56483 | 41550 ft | 468 kts | 107° |
| 2026-04-20 14:18 | 66.30747 | -32.40959 | 41554 ft | 468 kts | 107° |
| 2026-04-20 14:18 | 66.28904 | -32.25461 | 41550 ft | 468 kts | 108° |
| 2026-04-20 14:19 | 66.27044 | -32.09977 | 41552 ft | 468 kts | 108° |
| 2026-04-20 14:19 | 66.25167 | -31.94502 | 41530 ft | 469 kts | 108° |
| 2026-04-20 14:20 | 66.23269 | -31.79002 | 41542 ft | 470 kts | 108° |
| 2026-04-20 14:20 | 66.21357 | -31.63543 | 41547 ft | 469 kts | 108° |
| 2026-04-20 14:21 | 66.19430 | -31.48104 | 41547 ft | 469 kts | 109° |
| 2026-04-20 14:21 | 66.17486 | -31.32680 | 41552 ft | 469 kts | 109° |
| 2026-04-20 14:22 | 66.15529 | -31.17292 | 41552 ft | 469 kts | 109° |
| 2026-04-20 14:22 | 66.13555 | -31.01921 | 41553 ft | 469 kts | 109° |
| 2026-04-20 14:23 | 66.11584 | -30.86683 | 41547 ft | 469 kts | 109° |
| 2026-04-20 14:23 | 66.09604 | -30.71486 | 41551 ft | 462 kts | 109° |
| 2026-04-20 14:24 | 66.07626 | -30.56435 | 41561 ft | 461 kts | 110° |
| 2026-04-20 14:24 | 66.05637 | -30.41418 | 41555 ft | 461 kts | 110° |
| 2026-04-20 14:25 | 66.03632 | -30.26413 | 41556 ft | 461 kts | 110° |
| 2026-04-20 14:25 | 66.01616 | -30.11442 | 41559 ft | 461 kts | 110° |
| 2026-04-20 14:26 | 65.99468 | -29.96622 | 41563 ft | 460 kts | 113° |
| 2026-04-20 14:26 | 65.97139 | -29.81961 | 41545 ft | 461 kts | 112° |
| 2026-04-20 14:27 | 65.94840 | -29.67277 | 41568 ft | 462 kts | 112° |
| 2026-04-20 14:27 | 65.92533 | -29.52611 | 41567 ft | 461 kts | 112° |
| 2026-04-20 14:28 | 65.90213 | -29.37968 | 41571 ft | 463 kts | 112° |
| 2026-04-20 14:28 | 65.87868 | -29.23292 | 41570 ft | 463 kts | 112° |
| 2026-04-20 14:29 | 65.85514 | -29.08667 | 41573 ft | 463 kts | 113° |
| 2026-04-20 14:29 | 65.83144 | -28.94057 | 41573 ft | 463 kts | 113° |
| 2026-04-20 14:30 | 65.80763 | -28.79494 | 41559 ft | 463 kts | 113° |
| 2026-04-20 14:30 | 65.78354 | -28.64870 | 41582 ft | 465 kts | 113° |
| 2026-04-20 14:31 | 65.75930 | -28.50268 | 41578 ft | 465 kts | 113° |
| 2026-04-20 14:31 | 65.73509 | -28.35797 | 41579 ft | 465 kts | 113° |
| 2026-04-20 14:32 | 65.71057 | -28.21248 | 41579 ft | 465 kts | 113° |
| 2026-04-20 14:32 | 65.68591 | -28.06724 | 41586 ft | 466 kts | 114° |
| 2026-04-20 14:33 | 65.66108 | -27.92216 | 41590 ft | 466 kts | 114° |
| 2026-04-20 14:33 | 65.63614 | -27.77746 | 41585 ft | 465 kts | 114° |
| 2026-04-20 14:34 | 65.61114 | -27.63348 | 41587 ft | 464 kts | 114° |
| 2026-04-20 14:34 | 65.58601 | -27.48980 | 41592 ft | 464 kts | 114° |
| 2026-04-20 14:35 | 65.56074 | -27.34638 | 41591 ft | 464 kts | 114° |
| 2026-04-20 14:35 | 65.53533 | -27.20323 | 41597 ft | 464 kts | 115° |
| 2026-04-20 14:36 | 65.50978 | -27.06029 | 41601 ft | 464 kts | 114° |
| 2026-04-20 14:36 | 65.48411 | -26.91777 | 41602 ft | 464 kts | 115° |
| 2026-04-20 14:37 | 65.45830 | -26.77549 | 41597 ft | 464 kts | 115° |
| 2026-04-20 14:37 | 65.43236 | -26.63343 | 41605 ft | 464 kts | 115° |
| 2026-04-20 14:38 | 65.40630 | -26.49183 | 41607 ft | 464 kts | 115° |
| 2026-04-20 14:38 | 65.38009 | -26.35035 | 41603 ft | 464 kts | 115° |
| 2026-04-20 14:39 | 65.35395 | -26.21025 | 41603 ft | 464 kts | 115° |
| 2026-04-20 14:39 | 65.32747 | -26.06930 | 41602 ft | 464 kts | 115° |
| 2026-04-20 14:40 | 65.30087 | -25.92866 | 41616 ft | 463 kts | 116° |
| 2026-04-20 14:40 | 65.27431 | -25.78926 | 41603 ft | 460 kts | 116° |
| 2026-04-20 14:41 | 65.24762 | -25.65007 | 41612 ft | 461 kts | 116° |
| 2026-04-20 14:41 | 65.22077 | -25.51107 | 41604 ft | 461 kts | 116° |
| 2026-04-20 14:42 | 65.19381 | -25.37242 | 41619 ft | 461 kts | 116° |
| 2026-04-20 14:42 | 65.16672 | -25.23401 | 41613 ft | 461 kts | 116° |
| 2026-04-20 14:43 | 65.13952 | -25.09605 | 41611 ft | 461 kts | 116° |
| 2026-04-20 14:43 | 65.11221 | -24.95837 | 41613 ft | 461 kts | 116° |
| 2026-04-20 14:44 | 65.08482 | -24.82121 | 41622 ft | 459 kts | 117° |
| 2026-04-20 14:44 | 65.05733 | -24.68452 | 41624 ft | 459 kts | 117° |
| 2026-04-20 14:45 | 65.02970 | -24.54795 | 41627 ft | 460 kts | 117° |
| 2026-04-20 14:45 | 65.00194 | -24.41170 | 41626 ft | 461 kts | 117° |
| 2026-04-20 14:46 | 64.97398 | -24.27533 | 41625 ft | 461 kts | 117° |
| 2026-04-20 14:46 | 64.94607 | -24.14013 | 41628 ft | 461 kts | 117° |
| 2026-04-20 14:47 | 64.91789 | -24.00446 | 41626 ft | 460 kts | 118° |
| 2026-04-20 14:48 | 64.87541 | -23.80158 | 41632 ft | 461 kts | 117° |
| 2026-04-20 14:48 | 64.84692 | -23.66665 | 41638 ft | 460 kts | 117° |
| 2026-04-20 14:49 | 64.81837 | -23.53226 | 41638 ft | 460 kts | 118° |
| 2026-04-20 14:49 | 64.78962 | -23.39784 | 41643 ft | 460 kts | 118° |
| 2026-04-20 14:50 | 64.76571 | -23.28659 | 41633 ft | 460 kts | 117° |
| 2026-04-20 14:50 | 64.73683 | -23.15313 | 41635 ft | 458 kts | 117° |
| 2026-04-20 14:51 | 64.70798 | -23.02061 | 41636 ft | 457 kts | 117° |
| 2026-04-20 14:51 | 64.67903 | -22.88843 | 41637 ft | 457 kts | 118° |
| 2026-04-20 14:52 | 64.64994 | -22.75642 | 41640 ft | 457 kts | 118° |
| 2026-04-20 14:52 | 64.62075 | -22.62476 | 41637 ft | 457 kts | 118° |
| 2026-04-20 14:53 | 64.59142 | -22.49334 | 41637 ft | 457 kts | 118° |
| 2026-04-20 14:53 | 64.56201 | -22.36230 | 41635 ft | 457 kts | 118° |
| 2026-04-20 14:54 | 64.53249 | -22.23160 | 41633 ft | 456 kts | 118° |
| 2026-04-20 14:54 | 64.50307 | -22.10214 | 41634 ft | 457 kts | 118° |
| 2026-04-20 14:55 | 64.47328 | -21.97181 | 41629 ft | 458 kts | 118° |
| 2026-04-20 14:55 | 64.44330 | -21.84144 | 41628 ft | 458 kts | 118° |
| 2026-04-20 14:56 | 64.41324 | -21.71154 | 41625 ft | 457 kts | 118° |
| 2026-04-20 14:56 | 64.38311 | -21.58212 | 41625 ft | 458 kts | 118° |
| 2026-04-20 14:57 | 64.35278 | -21.45256 | 41629 ft | 458 kts | 118° |
| 2026-04-20 14:57 | 64.32241 | -21.32366 | 41628 ft | 457 kts | 118° |
| 2026-04-20 14:58 | 64.29196 | -21.19514 | 41634 ft | 457 kts | 119° |
| 2026-04-20 14:58 | 64.26135 | -21.06674 | 41640 ft | 458 kts | 118° |
| 2026-04-20 14:59 | 64.23062 | -20.93858 | 41636 ft | 456 kts | 119° |
| 2026-04-20 14:59 | 64.19991 | -20.81107 | 41638 ft | 457 kts | 119° |
| 2026-04-20 15:00 | 64.16909 | -20.68371 | 41635 ft | 457 kts | 119° |
| 2026-04-20 15:00 | 64.13812 | -20.55649 | 41638 ft | 457 kts | 119° |
| 2026-04-20 15:01 | 64.10710 | -20.42975 | 41637 ft | 456 kts | 119° |
| 2026-04-20 15:01 | 64.07600 | -20.30335 | 41633 ft | 456 kts | 119° |
| 2026-04-20 15:02 | 64.04479 | -20.17722 | 41639 ft | 456 kts | 119° |
| 2026-04-20 15:02 | 64.01351 | -20.05145 | 41638 ft | 456 kts | 119° |
| 2026-04-20 15:03 | 63.98268 | -19.92503 | 41646 ft | 456 kts | 118° |
| 2026-04-20 15:03 | 63.95224 | -19.79829 | 41643 ft | 457 kts | 118° |
| 2026-04-20 15:04 | 63.92173 | -19.67173 | 41654 ft | 456 kts | 118° |
| 2026-04-20 15:04 | 63.89136 | -19.54641 | 41654 ft | 456 kts | 118° |
| 2026-04-20 15:05 | 63.86067 | -19.42056 | 41654 ft | 456 kts | 118° |
| 2026-04-20 15:05 | 63.82989 | -19.29500 | 41659 ft | 456 kts | 118° |
| 2026-04-20 15:06 | 63.79897 | -19.16961 | 41649 ft | 456 kts | 118° |
| 2026-04-20 15:06 | 63.76797 | -19.04461 | 41651 ft | 456 kts | 118° |
| 2026-04-20 15:07 | 63.73685 | -18.91985 | 41656 ft | 456 kts | 118° |
| 2026-04-20 15:07 | 63.70561 | -18.79532 | 41650 ft | 456 kts | 118° |
| 2026-04-20 15:08 | 63.67424 | -18.67096 | 41644 ft | 456 kts | 118° |
| 2026-04-20 15:08 | 63.64275 | -18.54679 | 41641 ft | 456 kts | 118° |
| 2026-04-20 15:09 | 63.61117 | -18.42301 | 41639 ft | 456 kts | 118° |
| 2026-04-20 15:09 | 63.57946 | -18.29940 | 41637 ft | 456 kts | 119° |
| 2026-04-20 15:10 | 63.54766 | -18.17613 | 41639 ft | 456 kts | 119° |
| 2026-04-20 15:10 | 63.51575 | -18.05311 | 41640 ft | 457 kts | 119° |
| 2026-04-20 15:11 | 63.48371 | -17.93028 | 41643 ft | 457 kts | 119° |
| 2026-04-20 15:11 | 63.45157 | -17.80773 | 41641 ft | 457 kts | 119° |
| 2026-04-20 15:12 | 63.41957 | -17.68639 | 41647 ft | 457 kts | 119° |
| 2026-04-20 15:12 | 63.38721 | -17.56435 | 41645 ft | 457 kts | 119° |
| 2026-04-20 15:13 | 63.35477 | -17.44267 | 41646 ft | 457 kts | 120° |
| 2026-04-20 15:13 | 63.32218 | -17.32110 | 41644 ft | 457 kts | 120° |
| 2026-04-20 15:14 | 63.28950 | -17.19986 | 41637 ft | 456 kts | 119° |
| 2026-04-20 15:14 | 63.25681 | -17.07920 | 41650 ft | 456 kts | 120° |
| 2026-04-20 15:15 | 63.22395 | -16.95860 | 41648 ft | 456 kts | 120° |
| 2026-04-20 15:15 | 63.19100 | -16.83830 | 41649 ft | 457 kts | 120° |
| 2026-04-20 15:16 | 63.15790 | -16.71812 | 41645 ft | 457 kts | 120° |
| 2026-04-20 15:16 | 63.12471 | -16.59823 | 41643 ft | 457 kts | 120° |
| 2026-04-20 15:17 | 63.09139 | -16.47854 | 41655 ft | 457 kts | 120° |
| 2026-04-20 15:17 | 63.05799 | -16.35919 | 41646 ft | 456 kts | 120° |
| 2026-04-20 15:18 | 63.02454 | -16.24027 | 41642 ft | 457 kts | 120° |
| 2026-04-20 15:18 | 62.99099 | -16.12163 | 41647 ft | 457 kts | 120° |
| 2026-04-20 15:19 | 62.95732 | -16.00320 | 41644 ft | 457 kts | 120° |
| 2026-04-20 15:19 | 62.92356 | -15.88506 | 41642 ft | 457 kts | 120° |
| 2026-04-20 15:20 | 62.88966 | -15.76705 | 41642 ft | 457 kts | 120° |
| 2026-04-20 15:20 | 62.85593 | -15.65025 | 41652 ft | 457 kts | 120° |
| 2026-04-20 15:21 | 62.82189 | -15.53300 | 41645 ft | 456 kts | 120° |
| 2026-04-20 15:21 | 62.78773 | -15.41590 | 41646 ft | 457 kts | 120° |
| 2026-04-20 15:22 | 62.75347 | -15.29909 | 41642 ft | 457 kts | 120° |
| 2026-04-20 15:22 | 62.71910 | -15.18250 | 41640 ft | 457 kts | 120° |
| 2026-04-20 15:23 | 62.68467 | -15.06632 | 41638 ft | 457 kts | 120° |
| 2026-04-20 15:23 | 62.65009 | -14.95022 | 41649 ft | 457 kts | 120° |
| 2026-04-20 15:24 | 62.61539 | -14.83429 | 41645 ft | 458 kts | 120° |
| 2026-04-20 15:24 | 62.58053 | -14.71844 | 41642 ft | 458 kts | 120° |
| 2026-04-20 15:25 | 62.54557 | -14.60284 | 41640 ft | 459 kts | 120° |
| 2026-04-20 15:25 | 62.51049 | -14.48741 | 41639 ft | 459 kts | 120° |
| 2026-04-20 15:26 | 62.47531 | -14.37227 | 41633 ft | 459 kts | 120° |
| 2026-04-20 15:26 | 62.44004 | -14.25739 | 41633 ft | 459 kts | 120° |
| 2026-04-20 15:27 | 62.40469 | -14.14284 | 41648 ft | 459 kts | 120° |
| 2026-04-20 15:27 | 62.36923 | -14.02850 | 41634 ft | 459 kts | 120° |
| 2026-04-20 15:28 | 62.33367 | -13.91443 | 41644 ft | 458 kts | 120° |
| 2026-04-20 15:28 | 62.29806 | -13.80076 | 41620 ft | 458 kts | 120° |
| 2026-04-20 15:29 | 62.26232 | -13.68724 | 41630 ft | 459 kts | 121° |
| 2026-04-20 15:29 | 62.22675 | -13.57479 | 41629 ft | 459 kts | 121° |
| 2026-04-20 15:30 | 62.19084 | -13.46184 | 41622 ft | 459 kts | 121° |
| 2026-04-20 15:30 | 62.15483 | -13.34914 | 41628 ft | 458 kts | 121° |
| 2026-04-20 15:31 | 62.11879 | -13.23692 | 41627 ft | 458 kts | 121° |
| 2026-04-20 15:31 | 62.08265 | -13.12490 | 41615 ft | 458 kts | 121° |
| 2026-04-20 15:32 | 62.04640 | -13.01311 | 41616 ft | 458 kts | 121° |
| 2026-04-20 15:32 | 62.01006 | -12.90157 | 41614 ft | 458 kts | 121° |
| 2026-04-20 15:33 | 61.97368 | -12.79044 | 41612 ft | 458 kts | 121° |
| 2026-04-20 15:33 | 61.93715 | -12.67941 | 41619 ft | 458 kts | 121° |
| 2026-04-20 15:34 | 61.90058 | -12.56880 | 41603 ft | 458 kts | 121° |
| 2026-04-20 15:34 | 61.86392 | -12.45845 | 41605 ft | 458 kts | 121° |
| 2026-04-20 15:35 | 61.82717 | -12.34834 | 41601 ft | 458 kts | 122° |
| 2026-04-20 15:35 | 61.79035 | -12.23853 | 41600 ft | 458 kts | 122° |
| 2026-04-20 15:36 | 61.75341 | -12.12892 | 41605 ft | 458 kts | 122° |
| 2026-04-20 15:36 | 61.71636 | -12.01951 | 41595 ft | 458 kts | 122° |
| 2026-04-20 15:37 | 61.67924 | -11.91038 | 41596 ft | 458 kts | 122° |
| 2026-04-20 15:37 | 61.64204 | -11.80156 | 41587 ft | 458 kts | 122° |
| 2026-04-20 15:38 | 61.61102 | -11.71120 | 41583 ft | 458 kts | 122° |
| 2026-04-20 15:38 | 61.57364 | -11.60279 | 41578 ft | 458 kts | 122° |
| 2026-04-20 15:39 | 61.53617 | -11.49463 | 41571 ft | 458 kts | 122° |
| 2026-04-20 15:39 | 61.49863 | -11.38676 | 41575 ft | 458 kts | 123° |
| 2026-04-20 15:40 | 61.46096 | -11.27905 | 41582 ft | 458 kts | 123° |
| 2026-04-20 15:40 | 61.42325 | -11.17169 | 41568 ft | 458 kts | 123° |
| 2026-04-20 15:41 | 61.38543 | -11.06453 | 41567 ft | 458 kts | 123° |
| 2026-04-20 15:41 | 61.34752 | -10.95762 | 41562 ft | 458 kts | 123° |
| 2026-04-20 15:42 | 61.30954 | -10.85090 | 41558 ft | 458 kts | 123° |
| 2026-04-20 15:42 | 61.27149 | -10.74444 | 41559 ft | 459 kts | 123° |
| 2026-04-20 15:43 | 61.23340 | -10.63833 | 41556 ft | 459 kts | 123° |
| 2026-04-20 15:43 | 61.19517 | -10.53228 | 41554 ft | 459 kts | 123° |
| 2026-04-20 15:44 | 61.15687 | -10.42651 | 41553 ft | 459 kts | 123° |
| 2026-04-20 15:44 | 61.11875 | -10.32170 | 41546 ft | 458 kts | 123° |
| 2026-04-20 15:45 | 61.08036 | -10.21661 | 41549 ft | 458 kts | 123° |
| 2026-04-20 15:45 | 61.04186 | -10.11167 | 41538 ft | 458 kts | 124° |
| 2026-04-20 15:46 | 61.00244 | -10.00817 | 41521 ft | 462 kts | 132° |
| 2026-04-20 15:46 | 60.95121 | -9.92711 | 41515 ft | 466 kts | 140° |
| 2026-04-20 15:47 | 60.89918 | -9.84779 | 41533 ft | 466 kts | 140° |
| 2026-04-20 15:47 | 60.84684 | -9.76915 | 41529 ft | 466 kts | 140° |
| 2026-04-20 15:48 | 60.79444 | -9.69080 | 41523 ft | 466 kts | 141° |
| 2026-04-20 15:48 | 60.74199 | -9.61271 | 41518 ft | 466 kts | 141° |
| 2026-04-20 15:49 | 60.68953 | -9.53493 | 41536 ft | 466 kts | 141° |
| 2026-04-20 15:49 | 60.63709 | -9.45746 | 41509 ft | 465 kts | 141° |
| 2026-04-20 15:50 | 60.58034 | -9.39436 | 41521 ft | 470 kts | 158° |
| 2026-04-20 15:50 | 60.51867 | -9.34894 | 41501 ft | 472 kts | 157° |
| 2026-04-20 15:51 | 60.45668 | -9.30446 | 41505 ft | 473 kts | 158° |
| 2026-04-20 15:51 | 60.39460 | -9.26048 | 41504 ft | 473 kts | 158° |
| 2026-04-20 15:52 | 60.33246 | -9.21665 | 41500 ft | 473 kts | 158° |
| 2026-04-20 15:52 | 60.27024 | -9.17294 | 41496 ft | 473 kts | 158° |
| 2026-04-20 15:53 | 60.17737 | -9.10804 | 41486 ft | 473 kts | 158° |
| 2026-04-20 15:53 | 60.11511 | -9.06475 | 41485 ft | 473 kts | 158° |
| 2026-04-20 15:54 | 60.05284 | -9.02162 | 41479 ft | 473 kts | 158° |
| 2026-04-20 15:54 | 59.99062 | -8.97870 | 41474 ft | 473 kts | 158° |
| 2026-04-20 15:55 | 59.92832 | -8.93589 | 41474 ft | 474 kts | 158° |
| 2026-04-20 15:55 | 59.86599 | -8.89324 | 41478 ft | 474 kts | 158° |
| 2026-04-20 15:56 | 59.80368 | -8.85077 | 41467 ft | 473 kts | 158° |
| 2026-04-20 15:56 | 59.74136 | -8.80846 | 41459 ft | 473 kts | 158° |
| 2026-04-20 15:57 | 59.67906 | -8.76632 | 41462 ft | 473 kts | 158° |
| 2026-04-20 15:57 | 59.61672 | -8.72433 | 41452 ft | 473 kts | 158° |
| 2026-04-20 15:58 | 59.55437 | -8.68249 | 41459 ft | 473 kts | 159° |
| 2026-04-20 15:58 | 59.49200 | -8.64081 | 41450 ft | 473 kts | 159° |
| 2026-04-20 15:59 | 59.42960 | -8.59926 | 41441 ft | 473 kts | 159° |
| 2026-04-20 15:59 | 59.36721 | -8.55789 | 41441 ft | 473 kts | 159° |
| 2026-04-20 16:00 | 59.30476 | -8.51664 | 41448 ft | 474 kts | 159° |
| 2026-04-20 16:00 | 59.24260 | -8.47573 | 41441 ft | 474 kts | 159° |
| 2026-04-20 16:01 | 59.17964 | -8.43446 | 41427 ft | 474 kts | 159° |
| 2026-04-20 16:01 | 59.11745 | -8.39385 | 41429 ft | 474 kts | 159° |
| 2026-04-20 16:02 | 59.05485 | -8.35314 | 41424 ft | 474 kts | 159° |
| 2026-04-20 16:02 | 58.99215 | -8.31251 | 41418 ft | 475 kts | 159° |
| 2026-04-20 16:03 | 58.92939 | -8.27200 | 41420 ft | 475 kts | 159° |
| 2026-04-20 16:03 | 58.86660 | -8.23162 | 41416 ft | 475 kts | 159° |
| 2026-04-20 16:04 | 58.80385 | -8.19144 | 41413 ft | 475 kts | 159° |